<?xml version="1.0" encoding="UTF-8" standalone="no" ?>
<gpx xmlns="http://www.topografix.com/GPX/1/1" xmlns:xsi="http://www.w3.org/2001/XMLSchema-instance" xsi:schemaLocation="http://www.topografix.com/GPX/1/1 http://www.topografix.com/GPX/1/1/gpx.xsd" version="1.1" creator="VisuGPX - https://www.visugpx.com">
  <metadata>
    <name>Chalon Macon</name>
    <desc><![CDATA[Chalon macon à vélo]]></desc>
  </metadata>
  <trk>
    <name><![CDATA[Chalon - Macon]]></name>
    <trkseg>
      <trkpt lat="46.77648" lon="4.82963">
        <ele>174</ele>
        <time>2010-04-24T06:39:18Z</time>
      </trkpt>
      <trkpt lat="46.77642" lon="4.82893">
        <ele>179</ele>
        <time>2010-04-24T06:44:47Z</time>
      </trkpt>
      <trkpt lat="46.77654" lon="4.82823">
        <ele>179</ele>
        <time>2010-04-24T06:45:00Z</time>
      </trkpt>
      <trkpt lat="46.77666" lon="4.82746">
        <ele>179</ele>
        <time>2010-04-24T06:45:12Z</time>
      </trkpt>
      <trkpt lat="46.77678" lon="4.82671">
        <ele>178</ele>
        <time>2010-04-24T06:45:23Z</time>
      </trkpt>
      <trkpt lat="46.7769" lon="4.82598">
        <ele>179</ele>
        <time>2010-04-24T06:45:34Z</time>
      </trkpt>
      <trkpt lat="46.77702" lon="4.82527">
        <ele>180</ele>
        <time>2010-04-24T06:45:45Z</time>
      </trkpt>
      <trkpt lat="46.77712" lon="4.82452">
        <ele>180</ele>
        <time>2010-04-24T06:45:57Z</time>
      </trkpt>
      <trkpt lat="46.77726" lon="4.82376">
        <ele>181</ele>
        <time>2010-04-24T06:46:09Z</time>
      </trkpt>
      <trkpt lat="46.77737" lon="4.82303">
        <ele>183</ele>
        <time>2010-04-24T06:46:19Z</time>
      </trkpt>
      <trkpt lat="46.7775" lon="4.82226">
        <ele>185</ele>
        <time>2010-04-24T06:46:30Z</time>
      </trkpt>
      <trkpt lat="46.77762" lon="4.82154">
        <ele>185</ele>
        <time>2010-04-24T06:46:41Z</time>
      </trkpt>
      <trkpt lat="46.77775" lon="4.8208">
        <ele>186</ele>
        <time>2010-04-24T06:46:59Z</time>
      </trkpt>
      <trkpt lat="46.77786" lon="4.82008">
        <ele>186</ele>
        <time>2010-04-24T06:47:12Z</time>
      </trkpt>
      <trkpt lat="46.778" lon="4.81935">
        <ele>188</ele>
        <time>2010-04-24T06:47:24Z</time>
      </trkpt>
      <trkpt lat="46.77811" lon="4.8186">
        <ele>192</ele>
        <time>2010-04-24T06:47:34Z</time>
      </trkpt>
      <trkpt lat="46.77824" lon="4.81784">
        <ele>192</ele>
        <time>2010-04-24T06:47:45Z</time>
      </trkpt>
      <trkpt lat="46.77837" lon="4.81709">
        <ele>192</ele>
        <time>2010-04-24T06:47:56Z</time>
      </trkpt>
      <trkpt lat="46.77849" lon="4.81633">
        <ele>192</ele>
        <time>2010-04-24T06:48:07Z</time>
      </trkpt>
      <trkpt lat="46.77861" lon="4.81558">
        <ele>193</ele>
        <time>2010-04-24T06:48:18Z</time>
      </trkpt>
      <trkpt lat="46.77872" lon="4.81483">
        <ele>195</ele>
        <time>2010-04-24T06:48:29Z</time>
      </trkpt>
      <trkpt lat="46.77883" lon="4.81411">
        <ele>195</ele>
        <time>2010-04-24T06:48:40Z</time>
      </trkpt>
      <trkpt lat="46.77894" lon="4.81339">
        <ele>195</ele>
        <time>2010-04-24T06:48:51Z</time>
      </trkpt>
      <trkpt lat="46.77908" lon="4.81269">
        <ele>194</ele>
        <time>2010-04-24T06:49:02Z</time>
      </trkpt>
      <trkpt lat="46.77919" lon="4.81198">
        <ele>196</ele>
        <time>2010-04-24T06:49:13Z</time>
      </trkpt>
      <trkpt lat="46.77932" lon="4.81123">
        <ele>197</ele>
        <time>2010-04-24T06:49:25Z</time>
      </trkpt>
      <trkpt lat="46.77944" lon="4.81052">
        <ele>198</ele>
        <time>2010-04-24T06:49:36Z</time>
      </trkpt>
      <trkpt lat="46.77955" lon="4.8098">
        <ele>200</ele>
        <time>2010-04-24T06:49:47Z</time>
      </trkpt>
      <trkpt lat="46.77967" lon="4.80907">
        <ele>200</ele>
        <time>2010-04-24T06:49:58Z</time>
      </trkpt>
      <trkpt lat="46.7798" lon="4.80833">
        <ele>200</ele>
        <time>2010-04-24T06:50:09Z</time>
      </trkpt>
      <trkpt lat="46.77992" lon="4.80758">
        <ele>200</ele>
        <time>2010-04-24T06:50:20Z</time>
      </trkpt>
      <trkpt lat="46.78004" lon="4.80687">
        <ele>200</ele>
        <time>2010-04-24T06:50:30Z</time>
      </trkpt>
      <trkpt lat="46.78017" lon="4.8061">
        <ele>200</ele>
        <time>2010-04-24T06:50:41Z</time>
      </trkpt>
      <trkpt lat="46.78029" lon="4.80535">
        <ele>201</ele>
        <time>2010-04-24T06:50:53Z</time>
      </trkpt>
      <trkpt lat="46.78041" lon="4.80463">
        <ele>201</ele>
        <time>2010-04-24T06:51:18Z</time>
      </trkpt>
      <trkpt lat="46.78053" lon="4.80392">
        <ele>201</ele>
        <time>2010-04-24T06:51:29Z</time>
      </trkpt>
      <trkpt lat="46.78066" lon="4.80314">
        <ele>200</ele>
        <time>2010-04-24T06:51:39Z</time>
      </trkpt>
      <trkpt lat="46.78078" lon="4.80241">
        <ele>200</ele>
        <time>2010-04-24T06:51:48Z</time>
      </trkpt>
      <trkpt lat="46.78091" lon="4.80162">
        <ele>199</ele>
        <time>2010-04-24T06:51:58Z</time>
      </trkpt>
      <trkpt lat="46.78105" lon="4.80083">
        <ele>199</ele>
        <time>2010-04-24T06:52:08Z</time>
      </trkpt>
      <trkpt lat="46.78117" lon="4.8001">
        <ele>199</ele>
        <time>2010-04-24T06:52:17Z</time>
      </trkpt>
      <trkpt lat="46.7813" lon="4.79934">
        <ele>199</ele>
        <time>2010-04-24T06:52:26Z</time>
      </trkpt>
      <trkpt lat="46.78142" lon="4.79858">
        <ele>199</ele>
        <time>2010-04-24T06:52:35Z</time>
      </trkpt>
      <trkpt lat="46.78156" lon="4.79782">
        <ele>198</ele>
        <time>2010-04-24T06:52:47Z</time>
      </trkpt>
      <trkpt lat="46.78166" lon="4.7971">
        <ele>198</ele>
        <time>2010-04-24T06:53:03Z</time>
      </trkpt>
      <trkpt lat="46.78178" lon="4.79638">
        <ele>198</ele>
        <time>2010-04-24T06:53:15Z</time>
      </trkpt>
      <trkpt lat="46.78191" lon="4.79561">
        <ele>198</ele>
        <time>2010-04-24T06:53:25Z</time>
      </trkpt>
      <trkpt lat="46.78204" lon="4.79484">
        <ele>198</ele>
        <time>2010-04-24T06:53:34Z</time>
      </trkpt>
      <trkpt lat="46.78217" lon="4.7941">
        <ele>198</ele>
        <time>2010-04-24T06:53:43Z</time>
      </trkpt>
      <trkpt lat="46.78229" lon="4.79332">
        <ele>197</ele>
        <time>2010-04-24T06:53:52Z</time>
      </trkpt>
      <trkpt lat="46.78242" lon="4.79254">
        <ele>196</ele>
        <time>2010-04-24T06:54:01Z</time>
      </trkpt>
      <trkpt lat="46.78249" lon="4.79179">
        <ele>197</ele>
        <time>2010-04-24T06:54:10Z</time>
      </trkpt>
      <trkpt lat="46.78258" lon="4.79099">
        <ele>197</ele>
        <time>2010-04-24T06:54:19Z</time>
      </trkpt>
      <trkpt lat="46.78266" lon="4.79017">
        <ele>196</ele>
        <time>2010-04-24T06:54:28Z</time>
      </trkpt>
      <trkpt lat="46.78274" lon="4.78936">
        <ele>193</ele>
        <time>2010-04-24T06:54:37Z</time>
      </trkpt>
      <trkpt lat="46.78285" lon="4.78859">
        <ele>192</ele>
        <time>2010-04-24T06:54:45Z</time>
      </trkpt>
      <trkpt lat="46.78297" lon="4.78782">
        <ele>191</ele>
        <time>2010-04-24T06:54:53Z</time>
      </trkpt>
      <trkpt lat="46.78309" lon="4.78706">
        <ele>190</ele>
        <time>2010-04-24T06:55:01Z</time>
      </trkpt>
      <trkpt lat="46.78321" lon="4.78627">
        <ele>191</ele>
        <time>2010-04-24T06:55:09Z</time>
      </trkpt>
      <trkpt lat="46.78334" lon="4.78551">
        <ele>190</ele>
        <time>2010-04-24T06:55:17Z</time>
      </trkpt>
      <trkpt lat="46.78345" lon="4.78476">
        <ele>189</ele>
        <time>2010-04-24T06:55:25Z</time>
      </trkpt>
      <trkpt lat="46.78355" lon="4.78402">
        <ele>188</ele>
        <time>2010-04-24T06:55:33Z</time>
      </trkpt>
      <trkpt lat="46.78366" lon="4.7832">
        <ele>187</ele>
        <time>2010-04-24T06:55:42Z</time>
      </trkpt>
      <trkpt lat="46.78377" lon="4.78239">
        <ele>186</ele>
        <time>2010-04-24T06:55:51Z</time>
      </trkpt>
      <trkpt lat="46.78388" lon="4.78159">
        <ele>185</ele>
        <time>2010-04-24T06:56:01Z</time>
      </trkpt>
      <trkpt lat="46.78399" lon="4.78086">
        <ele>185</ele>
        <time>2010-04-24T06:56:17Z</time>
      </trkpt>
      <trkpt lat="46.78409" lon="4.78011">
        <ele>185</ele>
        <time>2010-04-24T06:56:28Z</time>
      </trkpt>
      <trkpt lat="46.78419" lon="4.77935">
        <ele>185</ele>
        <time>2010-04-24T06:56:39Z</time>
      </trkpt>
      <trkpt lat="46.78429" lon="4.77857">
        <ele>186</ele>
        <time>2010-04-24T06:56:50Z</time>
      </trkpt>
      <trkpt lat="46.78437" lon="4.7778">
        <ele>185</ele>
        <time>2010-04-24T06:57:01Z</time>
      </trkpt>
      <trkpt lat="46.78446" lon="4.77703">
        <ele>184</ele>
        <time>2010-04-24T06:57:12Z</time>
      </trkpt>
      <trkpt lat="46.78455" lon="4.77625">
        <ele>184</ele>
        <time>2010-04-24T06:57:23Z</time>
      </trkpt>
      <trkpt lat="46.78466" lon="4.77547">
        <ele>186</ele>
        <time>2010-04-24T06:57:34Z</time>
      </trkpt>
      <trkpt lat="46.78474" lon="4.77471">
        <ele>188</ele>
        <time>2010-04-24T06:57:45Z</time>
      </trkpt>
      <trkpt lat="46.78482" lon="4.77396">
        <ele>190</ele>
        <time>2010-04-24T06:57:56Z</time>
      </trkpt>
      <trkpt lat="46.7849" lon="4.77318">
        <ele>189</ele>
        <time>2010-04-24T06:58:07Z</time>
      </trkpt>
      <trkpt lat="46.78494" lon="4.77244">
        <ele>189</ele>
        <time>2010-04-24T06:58:17Z</time>
      </trkpt>
      <trkpt lat="46.78495" lon="4.7717">
        <ele>190</ele>
        <time>2010-04-24T06:58:27Z</time>
      </trkpt>
      <trkpt lat="46.78492" lon="4.77095">
        <ele>191</ele>
        <time>2010-04-24T06:58:37Z</time>
      </trkpt>
      <trkpt lat="46.78485" lon="4.7702">
        <ele>193</ele>
        <time>2010-04-24T06:58:47Z</time>
      </trkpt>
      <trkpt lat="46.78479" lon="4.76944">
        <ele>195</ele>
        <time>2010-04-24T06:58:57Z</time>
      </trkpt>
      <trkpt lat="46.78471" lon="4.76868">
        <ele>195</ele>
        <time>2010-04-24T06:59:07Z</time>
      </trkpt>
      <trkpt lat="46.78464" lon="4.76796">
        <ele>196</ele>
        <time>2010-04-24T06:59:17Z</time>
      </trkpt>
      <trkpt lat="46.78455" lon="4.7672">
        <ele>197</ele>
        <time>2010-04-24T06:59:27Z</time>
      </trkpt>
      <trkpt lat="46.78447" lon="4.76645">
        <ele>198</ele>
        <time>2010-04-24T06:59:37Z</time>
      </trkpt>
      <trkpt lat="46.78438" lon="4.7657">
        <ele>198</ele>
        <time>2010-04-24T06:59:51Z</time>
      </trkpt>
      <trkpt lat="46.78429" lon="4.76496">
        <ele>199</ele>
        <time>2010-04-24T07:00:05Z</time>
      </trkpt>
      <trkpt lat="46.78421" lon="4.76423">
        <ele>200</ele>
        <time>2010-04-24T07:00:15Z</time>
      </trkpt>
      <trkpt lat="46.78412" lon="4.76346">
        <ele>200</ele>
        <time>2010-04-24T07:00:25Z</time>
      </trkpt>
      <trkpt lat="46.78403" lon="4.76268">
        <ele>200</ele>
        <time>2010-04-24T07:00:35Z</time>
      </trkpt>
      <trkpt lat="46.78394" lon="4.76189">
        <ele>201</ele>
        <time>2010-04-24T07:00:45Z</time>
      </trkpt>
      <trkpt lat="46.78386" lon="4.76109">
        <ele>201</ele>
        <time>2010-04-24T07:00:55Z</time>
      </trkpt>
      <trkpt lat="46.78377" lon="4.7603">
        <ele>202</ele>
        <time>2010-04-24T07:01:05Z</time>
      </trkpt>
      <trkpt lat="46.78368" lon="4.75953">
        <ele>203</ele>
        <time>2010-04-24T07:01:15Z</time>
      </trkpt>
      <trkpt lat="46.7836" lon="4.75878">
        <ele>203</ele>
        <time>2010-04-24T07:01:25Z</time>
      </trkpt>
      <trkpt lat="46.78351" lon="4.758">
        <ele>204</ele>
        <time>2010-04-24T07:01:36Z</time>
      </trkpt>
      <trkpt lat="46.78342" lon="4.75723">
        <ele>205</ele>
        <time>2010-04-24T07:01:47Z</time>
      </trkpt>
      <trkpt lat="46.78333" lon="4.75649">
        <ele>206</ele>
        <time>2010-04-24T07:02:06Z</time>
      </trkpt>
      <trkpt lat="46.78325" lon="4.75574">
        <ele>206</ele>
        <time>2010-04-24T07:02:20Z</time>
      </trkpt>
      <trkpt lat="46.78317" lon="4.75497">
        <ele>207</ele>
        <time>2010-04-24T07:02:31Z</time>
      </trkpt>
      <trkpt lat="46.78308" lon="4.75424">
        <ele>208</ele>
        <time>2010-04-24T07:02:41Z</time>
      </trkpt>
      <trkpt lat="46.783" lon="4.75351">
        <ele>208</ele>
        <time>2010-04-24T07:02:51Z</time>
      </trkpt>
      <trkpt lat="46.7829" lon="4.75276">
        <ele>207</ele>
        <time>2010-04-24T07:03:01Z</time>
      </trkpt>
      <trkpt lat="46.78276" lon="4.75201">
        <ele>206</ele>
        <time>2010-04-24T07:03:11Z</time>
      </trkpt>
      <trkpt lat="46.78254" lon="4.75133">
        <ele>207</ele>
        <time>2010-04-24T07:03:20Z</time>
      </trkpt>
      <trkpt lat="46.78224" lon="4.7507">
        <ele>207</ele>
        <time>2010-04-24T07:03:29Z</time>
      </trkpt>
      <trkpt lat="46.78185" lon="4.75014">
        <ele>208</ele>
        <time>2010-04-24T07:03:39Z</time>
      </trkpt>
      <trkpt lat="46.78151" lon="4.74957">
        <ele>209</ele>
        <time>2010-04-24T07:03:54Z</time>
      </trkpt>
      <trkpt lat="46.78161" lon="4.74886">
        <ele>211</ele>
        <time>2010-04-24T07:04:08Z</time>
      </trkpt>
      <trkpt lat="46.78137" lon="4.74898">
        <ele>211</ele>
        <time>2010-04-24T07:14:05Z</time>
      </trkpt>
      <trkpt lat="46.781" lon="4.74928">
        <ele>210</ele>
        <time>2010-04-24T07:14:34Z</time>
      </trkpt>
      <trkpt lat="46.78054" lon="4.74912">
        <ele>209</ele>
        <time>2010-04-24T07:15:05Z</time>
      </trkpt>
      <trkpt lat="46.78007" lon="4.74886">
        <ele>209</ele>
        <time>2010-04-24T07:24:52Z</time>
      </trkpt>
      <trkpt lat="46.77962" lon="4.7486">
        <ele>208</ele>
        <time>2010-04-24T07:25:12Z</time>
      </trkpt>
      <trkpt lat="46.77912" lon="4.74832">
        <ele>208</ele>
        <time>2010-04-24T07:25:24Z</time>
      </trkpt>
      <trkpt lat="46.77865" lon="4.74805">
        <ele>208</ele>
        <time>2010-04-24T07:25:34Z</time>
      </trkpt>
      <trkpt lat="46.77813" lon="4.74776">
        <ele>208</ele>
        <time>2010-04-24T07:25:44Z</time>
      </trkpt>
      <trkpt lat="46.77765" lon="4.74752">
        <ele>209</ele>
        <time>2010-04-24T07:26:02Z</time>
      </trkpt>
      <trkpt lat="46.7772" lon="4.74726">
        <ele>209</ele>
        <time>2010-04-24T07:26:14Z</time>
      </trkpt>
      <trkpt lat="46.77671" lon="4.74699">
        <ele>208</ele>
        <time>2010-04-24T07:26:23Z</time>
      </trkpt>
      <trkpt lat="46.77622" lon="4.7467">
        <ele>208</ele>
        <time>2010-04-24T07:26:32Z</time>
      </trkpt>
      <trkpt lat="46.77572" lon="4.7464">
        <ele>208</ele>
        <time>2010-04-24T07:26:41Z</time>
      </trkpt>
      <trkpt lat="46.77522" lon="4.74614">
        <ele>209</ele>
        <time>2010-04-24T07:26:50Z</time>
      </trkpt>
      <trkpt lat="46.77473" lon="4.74586">
        <ele>208</ele>
        <time>2010-04-24T07:26:59Z</time>
      </trkpt>
      <trkpt lat="46.77423" lon="4.74558">
        <ele>209</ele>
        <time>2010-04-24T07:27:08Z</time>
      </trkpt>
      <trkpt lat="46.77375" lon="4.74531">
        <ele>209</ele>
        <time>2010-04-24T07:27:17Z</time>
      </trkpt>
      <trkpt lat="46.77325" lon="4.74502">
        <ele>209</ele>
        <time>2010-04-24T07:27:26Z</time>
      </trkpt>
      <trkpt lat="46.77275" lon="4.74475">
        <ele>210</ele>
        <time>2010-04-24T07:27:35Z</time>
      </trkpt>
      <trkpt lat="46.77225" lon="4.74447">
        <ele>210</ele>
        <time>2010-04-24T07:27:44Z</time>
      </trkpt>
      <trkpt lat="46.77176" lon="4.7442">
        <ele>210</ele>
        <time>2010-04-24T07:27:53Z</time>
      </trkpt>
      <trkpt lat="46.77125" lon="4.74392">
        <ele>211</ele>
        <time>2010-04-24T07:28:02Z</time>
      </trkpt>
      <trkpt lat="46.77076" lon="4.74364">
        <ele>212</ele>
        <time>2010-04-24T07:28:11Z</time>
      </trkpt>
      <trkpt lat="46.77027" lon="4.74337">
        <ele>213</ele>
        <time>2010-04-24T07:28:20Z</time>
      </trkpt>
      <trkpt lat="46.76979" lon="4.7431">
        <ele>214</ele>
        <time>2010-04-24T07:28:29Z</time>
      </trkpt>
      <trkpt lat="46.76931" lon="4.74285">
        <ele>214</ele>
        <time>2010-04-24T07:28:39Z</time>
      </trkpt>
      <trkpt lat="46.76883" lon="4.74257">
        <ele>215</ele>
        <time>2010-04-24T07:28:49Z</time>
      </trkpt>
      <trkpt lat="46.76832" lon="4.74228">
        <ele>216</ele>
        <time>2010-04-24T07:28:59Z</time>
      </trkpt>
      <trkpt lat="46.76781" lon="4.74199">
        <ele>216</ele>
        <time>2010-04-24T07:29:09Z</time>
      </trkpt>
      <trkpt lat="46.76731" lon="4.7417">
        <ele>216</ele>
        <time>2010-04-24T07:29:19Z</time>
      </trkpt>
      <trkpt lat="46.7668" lon="4.74141">
        <ele>217</ele>
        <time>2010-04-24T07:29:29Z</time>
      </trkpt>
      <trkpt lat="46.76628" lon="4.74114">
        <ele>218</ele>
        <time>2010-04-24T07:29:39Z</time>
      </trkpt>
      <trkpt lat="46.76579" lon="4.74087">
        <ele>218</ele>
        <time>2010-04-24T07:29:50Z</time>
      </trkpt>
      <trkpt lat="46.76535" lon="4.74059">
        <ele>219</ele>
        <time>2010-04-24T07:30:05Z</time>
      </trkpt>
      <trkpt lat="46.76485" lon="4.74032">
        <ele>220</ele>
        <time>2010-04-24T07:30:17Z</time>
      </trkpt>
      <trkpt lat="46.76434" lon="4.74001">
        <ele>220</ele>
        <time>2010-04-24T07:30:28Z</time>
      </trkpt>
      <trkpt lat="46.76388" lon="4.73968">
        <ele>221</ele>
        <time>2010-04-24T07:30:38Z</time>
      </trkpt>
      <trkpt lat="46.76342" lon="4.73931">
        <ele>220</ele>
        <time>2010-04-24T07:30:48Z</time>
      </trkpt>
      <trkpt lat="46.76296" lon="4.73889">
        <ele>220</ele>
        <time>2010-04-24T07:30:58Z</time>
      </trkpt>
      <trkpt lat="46.76255" lon="4.73845">
        <ele>221</ele>
        <time>2010-04-24T07:31:09Z</time>
      </trkpt>
      <trkpt lat="46.76215" lon="4.73798">
        <ele>221</ele>
        <time>2010-04-24T07:31:19Z</time>
      </trkpt>
      <trkpt lat="46.76176" lon="4.73748">
        <ele>221</ele>
        <time>2010-04-24T07:31:29Z</time>
      </trkpt>
      <trkpt lat="46.76134" lon="4.73695">
        <ele>221</ele>
        <time>2010-04-24T07:31:38Z</time>
      </trkpt>
      <trkpt lat="46.76091" lon="4.7364">
        <ele>221</ele>
        <time>2010-04-24T07:31:47Z</time>
      </trkpt>
      <trkpt lat="46.7605" lon="4.73588">
        <ele>221</ele>
        <time>2010-04-24T07:31:56Z</time>
      </trkpt>
      <trkpt lat="46.76008" lon="4.73534">
        <ele>221</ele>
        <time>2010-04-24T07:32:05Z</time>
      </trkpt>
      <trkpt lat="46.75967" lon="4.73481">
        <ele>221</ele>
        <time>2010-04-24T07:32:14Z</time>
      </trkpt>
      <trkpt lat="46.75867" lon="4.73399">
        <ele>222</ele>
        <time>2010-04-24T07:32:33Z</time>
      </trkpt>
      <trkpt lat="46.75846" lon="4.73328">
        <ele>221</ele>
        <time>2010-04-24T07:32:41Z</time>
      </trkpt>
      <trkpt lat="46.75804" lon="4.73274">
        <ele>220</ele>
        <time>2010-04-24T07:32:50Z</time>
      </trkpt>
      <trkpt lat="46.75761" lon="4.7322">
        <ele>219</ele>
        <time>2010-04-24T07:32:59Z</time>
      </trkpt>
      <trkpt lat="46.75718" lon="4.73166">
        <ele>218</ele>
        <time>2010-04-24T07:33:08Z</time>
      </trkpt>
      <trkpt lat="46.75676" lon="4.73114">
        <ele>217</ele>
        <time>2010-04-24T07:33:16Z</time>
      </trkpt>
      <trkpt lat="46.75635" lon="4.73061">
        <ele>216</ele>
        <time>2010-04-24T07:33:24Z</time>
      </trkpt>
      <trkpt lat="46.75594" lon="4.73009">
        <ele>216</ele>
        <time>2010-04-24T07:33:32Z</time>
      </trkpt>
      <trkpt lat="46.75552" lon="4.72957">
        <ele>216</ele>
        <time>2010-04-24T07:33:40Z</time>
      </trkpt>
      <trkpt lat="46.75513" lon="4.72908">
        <ele>215</ele>
        <time>2010-04-24T07:33:48Z</time>
      </trkpt>
      <trkpt lat="46.7547" lon="4.72853">
        <ele>216</ele>
        <time>2010-04-24T07:33:57Z</time>
      </trkpt>
      <trkpt lat="46.75427" lon="4.72798">
        <ele>216</ele>
        <time>2010-04-24T07:34:06Z</time>
      </trkpt>
      <trkpt lat="46.75385" lon="4.72745">
        <ele>216</ele>
        <time>2010-04-24T07:34:15Z</time>
      </trkpt>
      <trkpt lat="46.75343" lon="4.72693">
        <ele>215</ele>
        <time>2010-04-24T07:34:24Z</time>
      </trkpt>
      <trkpt lat="46.75304" lon="4.72645">
        <ele>215</ele>
        <time>2010-04-24T07:34:33Z</time>
      </trkpt>
      <trkpt lat="46.75261" lon="4.72601">
        <ele>216</ele>
        <time>2010-04-24T07:34:44Z</time>
      </trkpt>
      <trkpt lat="46.75218" lon="4.72566">
        <ele>216</ele>
        <time>2010-04-24T07:35:01Z</time>
      </trkpt>
      <trkpt lat="46.75169" lon="4.72535">
        <ele>216</ele>
        <time>2010-04-24T07:35:12Z</time>
      </trkpt>
      <trkpt lat="46.75119" lon="4.72505">
        <ele>216</ele>
        <time>2010-04-24T07:35:22Z</time>
      </trkpt>
      <trkpt lat="46.7507" lon="4.72475">
        <ele>216</ele>
        <time>2010-04-24T07:35:32Z</time>
      </trkpt>
      <trkpt lat="46.75022" lon="4.72447">
        <ele>217</ele>
        <time>2010-04-24T07:35:43Z</time>
      </trkpt>
      <trkpt lat="46.74973" lon="4.72417">
        <ele>218</ele>
        <time>2010-04-24T07:35:53Z</time>
      </trkpt>
      <trkpt lat="46.74923" lon="4.72388">
        <ele>218</ele>
        <time>2010-04-24T07:36:03Z</time>
      </trkpt>
      <trkpt lat="46.74873" lon="4.72368">
        <ele>218</ele>
        <time>2010-04-24T07:36:12Z</time>
      </trkpt>
      <trkpt lat="46.7482" lon="4.72355">
        <ele>218</ele>
        <time>2010-04-24T07:36:21Z</time>
      </trkpt>
      <trkpt lat="46.74767" lon="4.72345">
        <ele>218</ele>
        <time>2010-04-24T07:36:30Z</time>
      </trkpt>
      <trkpt lat="46.74711" lon="4.72336">
        <ele>218</ele>
        <time>2010-04-24T07:36:40Z</time>
      </trkpt>
      <trkpt lat="46.74661" lon="4.72327">
        <ele>217</ele>
        <time>2010-04-24T07:36:49Z</time>
      </trkpt>
      <trkpt lat="46.74609" lon="4.72318">
        <ele>217</ele>
        <time>2010-04-24T07:36:57Z</time>
      </trkpt>
      <trkpt lat="46.74557" lon="4.72308">
        <ele>216</ele>
        <time>2010-04-24T07:37:05Z</time>
      </trkpt>
      <trkpt lat="46.74502" lon="4.72299">
        <ele>214</ele>
        <time>2010-04-24T07:37:14Z</time>
      </trkpt>
      <trkpt lat="46.74444" lon="4.7229">
        <ele>213</ele>
        <time>2010-04-24T07:37:23Z</time>
      </trkpt>
      <trkpt lat="46.74393" lon="4.72281">
        <ele>212</ele>
        <time>2010-04-24T07:37:31Z</time>
      </trkpt>
      <trkpt lat="46.74341" lon="4.72271">
        <ele>212</ele>
        <time>2010-04-24T07:37:39Z</time>
      </trkpt>
      <trkpt lat="46.74284" lon="4.72261">
        <ele>211</ele>
        <time>2010-04-24T07:37:48Z</time>
      </trkpt>
      <trkpt lat="46.74228" lon="4.72251">
        <ele>211</ele>
        <time>2010-04-24T07:37:57Z</time>
      </trkpt>
      <trkpt lat="46.74176" lon="4.72241">
        <ele>211</ele>
        <time>2010-04-24T07:38:05Z</time>
      </trkpt>
      <trkpt lat="46.74119" lon="4.72231">
        <ele>211</ele>
        <time>2010-04-24T07:38:14Z</time>
      </trkpt>
      <trkpt lat="46.74067" lon="4.72221">
        <ele>211</ele>
        <time>2010-04-24T07:38:22Z</time>
      </trkpt>
      <trkpt lat="46.74015" lon="4.72212">
        <ele>210</ele>
        <time>2010-04-24T07:38:30Z</time>
      </trkpt>
      <trkpt lat="46.73964" lon="4.72203">
        <ele>210</ele>
        <time>2010-04-24T07:38:39Z</time>
      </trkpt>
      <trkpt lat="46.73913" lon="4.72193">
        <ele>210</ele>
        <time>2010-04-24T07:38:55Z</time>
      </trkpt>
      <trkpt lat="46.73865" lon="4.72184">
        <ele>210</ele>
        <time>2010-04-24T07:39:09Z</time>
      </trkpt>
      <trkpt lat="46.73811" lon="4.72175">
        <ele>210</ele>
        <time>2010-04-24T07:39:19Z</time>
      </trkpt>
      <trkpt lat="46.73756" lon="4.72166">
        <ele>210</ele>
        <time>2010-04-24T07:39:29Z</time>
      </trkpt>
      <trkpt lat="46.73702" lon="4.72157">
        <ele>210</ele>
        <time>2010-04-24T07:39:39Z</time>
      </trkpt>
      <trkpt lat="46.73648" lon="4.72149">
        <ele>210</ele>
        <time>2010-04-24T07:39:49Z</time>
      </trkpt>
      <trkpt lat="46.73594" lon="4.7214">
        <ele>210</ele>
        <time>2010-04-24T07:39:59Z</time>
      </trkpt>
      <trkpt lat="46.73539" lon="4.7213">
        <ele>212</ele>
        <time>2010-04-24T07:40:09Z</time>
      </trkpt>
      <trkpt lat="46.73485" lon="4.7212">
        <ele>213</ele>
        <time>2010-04-24T07:40:19Z</time>
      </trkpt>
      <trkpt lat="46.73431" lon="4.72109">
        <ele>214</ele>
        <time>2010-04-24T07:40:29Z</time>
      </trkpt>
      <trkpt lat="46.73379" lon="4.72096">
        <ele>214</ele>
        <time>2010-04-24T07:40:39Z</time>
      </trkpt>
      <trkpt lat="46.73328" lon="4.72077">
        <ele>215</ele>
        <time>2010-04-24T07:40:49Z</time>
      </trkpt>
      <trkpt lat="46.73276" lon="4.72051">
        <ele>217</ele>
        <time>2010-04-24T07:40:59Z</time>
      </trkpt>
      <trkpt lat="46.73225" lon="4.72021">
        <ele>219</ele>
        <time>2010-04-24T07:41:09Z</time>
      </trkpt>
      <trkpt lat="46.73174" lon="4.7199">
        <ele>223</ele>
        <time>2010-04-24T07:41:19Z</time>
      </trkpt>
      <trkpt lat="46.73125" lon="4.71958">
        <ele>226</ele>
        <time>2010-04-24T07:41:29Z</time>
      </trkpt>
      <trkpt lat="46.73075" lon="4.71928">
        <ele>226</ele>
        <time>2010-04-24T07:41:39Z</time>
      </trkpt>
      <trkpt lat="46.73024" lon="4.71897">
        <ele>228</ele>
        <time>2010-04-24T07:41:49Z</time>
      </trkpt>
      <trkpt lat="46.72977" lon="4.71868">
        <ele>232</ele>
        <time>2010-04-24T07:41:58Z</time>
      </trkpt>
      <trkpt lat="46.72926" lon="4.71835">
        <ele>235</ele>
        <time>2010-04-24T07:42:08Z</time>
      </trkpt>
      <trkpt lat="46.72876" lon="4.71803">
        <ele>237</ele>
        <time>2010-04-24T07:42:18Z</time>
      </trkpt>
      <trkpt lat="46.72824" lon="4.71772">
        <ele>237</ele>
        <time>2010-04-24T07:42:28Z</time>
      </trkpt>
      <trkpt lat="46.72775" lon="4.71743">
        <ele>236</ele>
        <time>2010-04-24T07:42:38Z</time>
      </trkpt>
      <trkpt lat="46.72725" lon="4.71712">
        <ele>233</ele>
        <time>2010-04-24T07:42:48Z</time>
      </trkpt>
      <trkpt lat="46.72674" lon="4.71681">
        <ele>231</ele>
        <time>2010-04-24T07:42:58Z</time>
      </trkpt>
      <trkpt lat="46.72625" lon="4.7165">
        <ele>229</ele>
        <time>2010-04-24T07:43:08Z</time>
      </trkpt>
      <trkpt lat="46.72577" lon="4.71615">
        <ele>229</ele>
        <time>2010-04-24T07:43:18Z</time>
      </trkpt>
      <trkpt lat="46.72531" lon="4.71577">
        <ele>228</ele>
        <time>2010-04-24T07:43:28Z</time>
      </trkpt>
      <trkpt lat="46.72488" lon="4.71534">
        <ele>229</ele>
        <time>2010-04-24T07:43:38Z</time>
      </trkpt>
      <trkpt lat="46.72445" lon="4.71489">
        <ele>229</ele>
        <time>2010-04-24T07:43:49Z</time>
      </trkpt>
      <trkpt lat="46.72402" lon="4.71446">
        <ele>229</ele>
        <time>2010-04-24T07:44:00Z</time>
      </trkpt>
      <trkpt lat="46.7236" lon="4.71399">
        <ele>231</ele>
        <time>2010-04-24T07:44:11Z</time>
      </trkpt>
      <trkpt lat="46.72318" lon="4.71353">
        <ele>232</ele>
        <time>2010-04-24T07:44:22Z</time>
      </trkpt>
      <trkpt lat="46.72275" lon="4.71309">
        <ele>233</ele>
        <time>2010-04-24T07:44:33Z</time>
      </trkpt>
      <trkpt lat="46.72233" lon="4.71266">
        <ele>234</ele>
        <time>2010-04-24T07:44:44Z</time>
      </trkpt>
      <trkpt lat="46.72191" lon="4.71222">
        <ele>233</ele>
        <time>2010-04-24T07:44:55Z</time>
      </trkpt>
      <trkpt lat="46.72149" lon="4.71179">
        <ele>233</ele>
        <time>2010-04-24T07:45:06Z</time>
      </trkpt>
      <trkpt lat="46.72105" lon="4.71134">
        <ele>234</ele>
        <time>2010-04-24T07:45:18Z</time>
      </trkpt>
      <trkpt lat="46.72063" lon="4.7109">
        <ele>235</ele>
        <time>2010-04-24T07:45:30Z</time>
      </trkpt>
      <trkpt lat="46.7202" lon="4.71045">
        <ele>235</ele>
        <time>2010-04-24T07:45:42Z</time>
      </trkpt>
      <trkpt lat="46.71976" lon="4.70999">
        <ele>236</ele>
        <time>2010-04-24T07:45:54Z</time>
      </trkpt>
      <trkpt lat="46.71935" lon="4.70956">
        <ele>236</ele>
        <time>2010-04-24T07:46:06Z</time>
      </trkpt>
      <trkpt lat="46.71895" lon="4.70912">
        <ele>236</ele>
        <time>2010-04-24T07:47:24Z</time>
      </trkpt>
      <trkpt lat="46.71853" lon="4.70869">
        <ele>236</ele>
        <time>2010-04-24T07:47:33Z</time>
      </trkpt>
      <trkpt lat="46.71809" lon="4.70822">
        <ele>236</ele>
        <time>2010-04-24T07:47:43Z</time>
      </trkpt>
      <trkpt lat="46.71766" lon="4.70778">
        <ele>236</ele>
        <time>2010-04-24T07:47:52Z</time>
      </trkpt>
      <trkpt lat="46.71723" lon="4.70732">
        <ele>237</ele>
        <time>2010-04-24T07:48:01Z</time>
      </trkpt>
      <trkpt lat="46.7168" lon="4.70689">
        <ele>237</ele>
        <time>2010-04-24T07:48:10Z</time>
      </trkpt>
      <trkpt lat="46.71638" lon="4.70646">
        <ele>237</ele>
        <time>2010-04-24T07:48:19Z</time>
      </trkpt>
      <trkpt lat="46.71595" lon="4.70603">
        <ele>237</ele>
        <time>2010-04-24T07:48:28Z</time>
      </trkpt>
      <trkpt lat="46.71553" lon="4.7056">
        <ele>237</ele>
        <time>2010-04-24T07:48:37Z</time>
      </trkpt>
      <trkpt lat="46.71507" lon="4.70513">
        <ele>237</ele>
        <time>2010-04-24T07:48:47Z</time>
      </trkpt>
      <trkpt lat="46.71465" lon="4.7047">
        <ele>238</ele>
        <time>2010-04-24T07:48:57Z</time>
      </trkpt>
      <trkpt lat="46.71424" lon="4.70428">
        <ele>239</ele>
        <time>2010-04-24T07:49:08Z</time>
      </trkpt>
      <trkpt lat="46.71385" lon="4.70384">
        <ele>239</ele>
        <time>2010-04-24T07:49:35Z</time>
      </trkpt>
      <trkpt lat="46.71357" lon="4.7033">
        <ele>235</ele>
        <time>2010-04-24T08:01:50Z</time>
      </trkpt>
      <trkpt lat="46.71309" lon="4.70338">
        <ele>234</ele>
        <time>2010-04-24T08:02:14Z</time>
      </trkpt>
      <trkpt lat="46.7127" lon="4.70298">
        <ele>234</ele>
        <time>2010-04-24T08:02:30Z</time>
      </trkpt>
      <trkpt lat="46.71234" lon="4.70252">
        <ele>236</ele>
        <time>2010-04-24T08:04:08Z</time>
      </trkpt>
      <trkpt lat="46.71191" lon="4.70206">
        <ele>236</ele>
        <time>2010-04-24T08:04:21Z</time>
      </trkpt>
      <trkpt lat="46.71141" lon="4.7018">
        <ele>235</ele>
        <time>2010-04-24T08:04:31Z</time>
      </trkpt>
      <trkpt lat="46.71087" lon="4.70165">
        <ele>234</ele>
        <time>2010-04-24T08:04:41Z</time>
      </trkpt>
      <trkpt lat="46.71036" lon="4.70159">
        <ele>233</ele>
        <time>2010-04-24T08:04:50Z</time>
      </trkpt>
      <trkpt lat="46.70982" lon="4.70162">
        <ele>232</ele>
        <time>2010-04-24T08:04:59Z</time>
      </trkpt>
      <trkpt lat="46.70926" lon="4.70174">
        <ele>231</ele>
        <time>2010-04-24T08:05:08Z</time>
      </trkpt>
      <trkpt lat="46.70876" lon="4.70195">
        <ele>230</ele>
        <time>2010-04-24T08:05:16Z</time>
      </trkpt>
      <trkpt lat="46.70824" lon="4.70219">
        <ele>228</ele>
        <time>2010-04-24T08:05:25Z</time>
      </trkpt>
      <trkpt lat="46.70775" lon="4.70243">
        <ele>226</ele>
        <time>2010-04-24T08:05:34Z</time>
      </trkpt>
      <trkpt lat="46.70726" lon="4.70267">
        <ele>225</ele>
        <time>2010-04-24T08:05:42Z</time>
      </trkpt>
      <trkpt lat="46.70671" lon="4.70292">
        <ele>225</ele>
        <time>2010-04-24T08:05:51Z</time>
      </trkpt>
      <trkpt lat="46.70622" lon="4.70315">
        <ele>224</ele>
        <time>2010-04-24T08:05:59Z</time>
      </trkpt>
      <trkpt lat="46.70568" lon="4.70343">
        <ele>223</ele>
        <time>2010-04-24T08:06:08Z</time>
      </trkpt>
      <trkpt lat="46.70516" lon="4.70368">
        <ele>222</ele>
        <time>2010-04-24T08:06:17Z</time>
      </trkpt>
      <trkpt lat="46.70464" lon="4.70393">
        <ele>222</ele>
        <time>2010-04-24T08:06:25Z</time>
      </trkpt>
      <trkpt lat="46.70414" lon="4.70418">
        <ele>222</ele>
        <time>2010-04-24T08:06:33Z</time>
      </trkpt>
      <trkpt lat="46.70362" lon="4.70442">
        <ele>221</ele>
        <time>2010-04-24T08:06:41Z</time>
      </trkpt>
      <trkpt lat="46.70307" lon="4.70469">
        <ele>221</ele>
        <time>2010-04-24T08:06:50Z</time>
      </trkpt>
      <trkpt lat="46.70258" lon="4.70493">
        <ele>221</ele>
        <time>2010-04-24T08:06:58Z</time>
      </trkpt>
      <trkpt lat="46.70206" lon="4.70518">
        <ele>221</ele>
        <time>2010-04-24T08:07:07Z</time>
      </trkpt>
      <trkpt lat="46.70156" lon="4.7054">
        <ele>221</ele>
        <time>2010-04-24T08:07:22Z</time>
      </trkpt>
      <trkpt lat="46.7011" lon="4.70564">
        <ele>222</ele>
        <time>2010-04-24T08:07:33Z</time>
      </trkpt>
      <trkpt lat="46.70059" lon="4.70589">
        <ele>222</ele>
        <time>2010-04-24T08:07:43Z</time>
      </trkpt>
      <trkpt lat="46.70009" lon="4.70614">
        <ele>223</ele>
        <time>2010-04-24T08:07:53Z</time>
      </trkpt>
      <trkpt lat="46.69957" lon="4.70636">
        <ele>223</ele>
        <time>2010-04-24T08:08:04Z</time>
      </trkpt>
      <trkpt lat="46.69903" lon="4.7065">
        <ele>223</ele>
        <time>2010-04-24T08:08:15Z</time>
      </trkpt>
      <trkpt lat="46.69849" lon="4.70655">
        <ele>224</ele>
        <time>2010-04-24T08:08:26Z</time>
      </trkpt>
      <trkpt lat="46.69794" lon="4.70654">
        <ele>224</ele>
        <time>2010-04-24T08:08:37Z</time>
      </trkpt>
      <trkpt lat="46.69742" lon="4.70645">
        <ele>225</ele>
        <time>2010-04-24T08:08:47Z</time>
      </trkpt>
      <trkpt lat="46.69691" lon="4.70632">
        <ele>226</ele>
        <time>2010-04-24T08:08:56Z</time>
      </trkpt>
      <trkpt lat="46.69637" lon="4.70618">
        <ele>227</ele>
        <time>2010-04-24T08:09:05Z</time>
      </trkpt>
      <trkpt lat="46.69582" lon="4.70605">
        <ele>227</ele>
        <time>2010-04-24T08:09:14Z</time>
      </trkpt>
      <trkpt lat="46.6953" lon="4.70592">
        <ele>228</ele>
        <time>2010-04-24T08:09:23Z</time>
      </trkpt>
      <trkpt lat="46.69478" lon="4.7058">
        <ele>228</ele>
        <time>2010-04-24T08:09:37Z</time>
      </trkpt>
      <trkpt lat="46.69431" lon="4.70567">
        <ele>227</ele>
        <time>2010-04-24T08:09:48Z</time>
      </trkpt>
      <trkpt lat="46.69379" lon="4.70553">
        <ele>227</ele>
        <time>2010-04-24T08:09:57Z</time>
      </trkpt>
      <trkpt lat="46.69324" lon="4.70541">
        <ele>226</ele>
        <time>2010-04-24T08:10:06Z</time>
      </trkpt>
      <trkpt lat="46.6927" lon="4.70527">
        <ele>226</ele>
        <time>2010-04-24T08:10:15Z</time>
      </trkpt>
      <trkpt lat="46.69215" lon="4.70514">
        <ele>225</ele>
        <time>2010-04-24T08:10:24Z</time>
      </trkpt>
      <trkpt lat="46.69162" lon="4.705">
        <ele>225</ele>
        <time>2010-04-24T08:10:33Z</time>
      </trkpt>
      <trkpt lat="46.6911" lon="4.70488">
        <ele>225</ele>
        <time>2010-04-24T08:10:42Z</time>
      </trkpt>
      <trkpt lat="46.69059" lon="4.70476">
        <ele>226</ele>
        <time>2010-04-24T08:10:52Z</time>
      </trkpt>
      <trkpt lat="46.69005" lon="4.70463">
        <ele>226</ele>
        <time>2010-04-24T08:11:02Z</time>
      </trkpt>
      <trkpt lat="46.68955" lon="4.7045">
        <ele>226</ele>
        <time>2010-04-24T08:11:11Z</time>
      </trkpt>
      <trkpt lat="46.68904" lon="4.70437">
        <ele>226</ele>
        <time>2010-04-24T08:11:20Z</time>
      </trkpt>
      <trkpt lat="46.68853" lon="4.70425">
        <ele>226</ele>
        <time>2010-04-24T08:11:29Z</time>
      </trkpt>
      <trkpt lat="46.688" lon="4.70411">
        <ele>226</ele>
        <time>2010-04-24T08:11:38Z</time>
      </trkpt>
      <trkpt lat="46.68748" lon="4.70398">
        <ele>227</ele>
        <time>2010-04-24T08:11:47Z</time>
      </trkpt>
      <trkpt lat="46.68696" lon="4.70386">
        <ele>227</ele>
        <time>2010-04-24T08:11:56Z</time>
      </trkpt>
      <trkpt lat="46.68645" lon="4.70373">
        <ele>227</ele>
        <time>2010-04-24T08:12:05Z</time>
      </trkpt>
      <trkpt lat="46.68591" lon="4.7036">
        <ele>228</ele>
        <time>2010-04-24T08:12:16Z</time>
      </trkpt>
      <trkpt lat="46.68541" lon="4.70348">
        <ele>228</ele>
        <time>2010-04-24T08:12:26Z</time>
      </trkpt>
      <trkpt lat="46.68489" lon="4.70335">
        <ele>227</ele>
        <time>2010-04-24T08:12:34Z</time>
      </trkpt>
      <trkpt lat="46.68436" lon="4.70322">
        <ele>227</ele>
        <time>2010-04-24T08:12:42Z</time>
      </trkpt>
      <trkpt lat="46.68383" lon="4.70308">
        <ele>226</ele>
        <time>2010-04-24T08:12:50Z</time>
      </trkpt>
      <trkpt lat="46.68328" lon="4.70295">
        <ele>226</ele>
        <time>2010-04-24T08:12:58Z</time>
      </trkpt>
      <trkpt lat="46.68275" lon="4.70282">
        <ele>226</ele>
        <time>2010-04-24T08:13:06Z</time>
      </trkpt>
      <trkpt lat="46.68221" lon="4.70268">
        <ele>226</ele>
        <time>2010-04-24T08:13:15Z</time>
      </trkpt>
      <trkpt lat="46.68165" lon="4.70255">
        <ele>226</ele>
        <time>2010-04-24T08:13:24Z</time>
      </trkpt>
      <trkpt lat="46.68111" lon="4.70241">
        <ele>226</ele>
        <time>2010-04-24T08:13:34Z</time>
      </trkpt>
      <trkpt lat="46.68061" lon="4.70228">
        <ele>226</ele>
        <time>2010-04-24T08:13:43Z</time>
      </trkpt>
      <trkpt lat="46.68007" lon="4.70215">
        <ele>225</ele>
        <time>2010-04-24T08:13:52Z</time>
      </trkpt>
      <trkpt lat="46.67957" lon="4.70202">
        <ele>225</ele>
        <time>2010-04-24T08:14:01Z</time>
      </trkpt>
      <trkpt lat="46.67907" lon="4.7019">
        <ele>225</ele>
        <time>2010-04-24T08:14:11Z</time>
      </trkpt>
      <trkpt lat="46.67857" lon="4.70177">
        <ele>226</ele>
        <time>2010-04-24T08:14:21Z</time>
      </trkpt>
      <trkpt lat="46.67805" lon="4.70164">
        <ele>227</ele>
        <time>2010-04-24T08:14:31Z</time>
      </trkpt>
      <trkpt lat="46.67754" lon="4.70151">
        <ele>228</ele>
        <time>2010-04-24T08:14:41Z</time>
      </trkpt>
      <trkpt lat="46.67703" lon="4.7014">
        <ele>228</ele>
        <time>2010-04-24T08:14:51Z</time>
      </trkpt>
      <trkpt lat="46.67653" lon="4.70129">
        <ele>227</ele>
        <time>2010-04-24T08:15:01Z</time>
      </trkpt>
      <trkpt lat="46.67602" lon="4.70118">
        <ele>228</ele>
        <time>2010-04-24T08:15:11Z</time>
      </trkpt>
      <trkpt lat="46.67551" lon="4.70111">
        <ele>231</ele>
        <time>2010-04-24T08:15:21Z</time>
      </trkpt>
      <trkpt lat="46.675" lon="4.70109">
        <ele>233</ele>
        <time>2010-04-24T08:15:31Z</time>
      </trkpt>
      <trkpt lat="46.67449" lon="4.7011">
        <ele>233</ele>
        <time>2010-04-24T08:15:41Z</time>
      </trkpt>
      <trkpt lat="46.67398" lon="4.70115">
        <ele>235</ele>
        <time>2010-04-24T08:15:51Z</time>
      </trkpt>
      <trkpt lat="46.67346" lon="4.70121">
        <ele>237</ele>
        <time>2010-04-24T08:16:01Z</time>
      </trkpt>
      <trkpt lat="46.67292" lon="4.70127">
        <ele>235</ele>
        <time>2010-04-24T08:16:11Z</time>
      </trkpt>
      <trkpt lat="46.67238" lon="4.70134">
        <ele>233</ele>
        <time>2010-04-24T08:16:21Z</time>
      </trkpt>
      <trkpt lat="46.67184" lon="4.70138">
        <ele>232</ele>
        <time>2010-04-24T08:16:31Z</time>
      </trkpt>
      <trkpt lat="46.67132" lon="4.70135">
        <ele>231</ele>
        <time>2010-04-24T08:16:41Z</time>
      </trkpt>
      <trkpt lat="46.67079" lon="4.70123">
        <ele>231</ele>
        <time>2010-04-24T08:16:51Z</time>
      </trkpt>
      <trkpt lat="46.67027" lon="4.70101">
        <ele>231</ele>
        <time>2010-04-24T08:17:01Z</time>
      </trkpt>
      <trkpt lat="46.66977" lon="4.70071">
        <ele>232</ele>
        <time>2010-04-24T08:17:10Z</time>
      </trkpt>
      <trkpt lat="46.66929" lon="4.70035">
        <ele>232</ele>
        <time>2010-04-24T08:17:18Z</time>
      </trkpt>
      <trkpt lat="46.66883" lon="4.7">
        <ele>231</ele>
        <time>2010-04-24T08:17:26Z</time>
      </trkpt>
      <trkpt lat="46.66835" lon="4.69964">
        <ele>229</ele>
        <time>2010-04-24T08:17:35Z</time>
      </trkpt>
      <trkpt lat="46.66789" lon="4.69928">
        <ele>228</ele>
        <time>2010-04-24T08:17:44Z</time>
      </trkpt>
      <trkpt lat="46.66743" lon="4.69894">
        <ele>227</ele>
        <time>2010-04-24T08:17:52Z</time>
      </trkpt>
      <trkpt lat="46.66695" lon="4.69858">
        <ele>226</ele>
        <time>2010-04-24T08:18:00Z</time>
      </trkpt>
      <trkpt lat="46.66645" lon="4.6982">
        <ele>225</ele>
        <time>2010-04-24T08:18:08Z</time>
      </trkpt>
      <trkpt lat="46.66597" lon="4.69784">
        <ele>224</ele>
        <time>2010-04-24T08:18:16Z</time>
      </trkpt>
      <trkpt lat="46.66549" lon="4.69748">
        <ele>224</ele>
        <time>2010-04-24T08:18:24Z</time>
      </trkpt>
      <trkpt lat="46.66499" lon="4.69711">
        <ele>223</ele>
        <time>2010-04-24T08:18:33Z</time>
      </trkpt>
      <trkpt lat="46.66454" lon="4.69675">
        <ele>224</ele>
        <time>2010-04-24T08:18:42Z</time>
      </trkpt>
      <trkpt lat="46.66406" lon="4.69639">
        <ele>225</ele>
        <time>2010-04-24T08:18:51Z</time>
      </trkpt>
      <trkpt lat="46.66359" lon="4.69603">
        <ele>225</ele>
        <time>2010-04-24T08:19:00Z</time>
      </trkpt>
      <trkpt lat="46.66311" lon="4.69568">
        <ele>226</ele>
        <time>2010-04-24T08:19:09Z</time>
      </trkpt>
      <trkpt lat="46.66262" lon="4.69532">
        <ele>226</ele>
        <time>2010-04-24T08:19:18Z</time>
      </trkpt>
      <trkpt lat="46.66212" lon="4.69499">
        <ele>225</ele>
        <time>2010-04-24T08:19:27Z</time>
      </trkpt>
      <trkpt lat="46.66163" lon="4.69471">
        <ele>224</ele>
        <time>2010-04-24T08:19:36Z</time>
      </trkpt>
      <trkpt lat="46.66115" lon="4.69442">
        <ele>224</ele>
        <time>2010-04-24T08:19:45Z</time>
      </trkpt>
      <trkpt lat="46.66067" lon="4.69413">
        <ele>225</ele>
        <time>2010-04-24T08:19:55Z</time>
      </trkpt>
      <trkpt lat="46.6602" lon="4.69383">
        <ele>226</ele>
        <time>2010-04-24T08:20:04Z</time>
      </trkpt>
      <trkpt lat="46.65971" lon="4.69352">
        <ele>227</ele>
        <time>2010-04-24T08:20:13Z</time>
      </trkpt>
      <trkpt lat="46.65923" lon="4.69323">
        <ele>228</ele>
        <time>2010-04-24T08:20:22Z</time>
      </trkpt>
      <trkpt lat="46.65876" lon="4.69295">
        <ele>228</ele>
        <time>2010-04-24T08:20:31Z</time>
      </trkpt>
      <trkpt lat="46.65825" lon="4.69263">
        <ele>229</ele>
        <time>2010-04-24T08:20:41Z</time>
      </trkpt>
      <trkpt lat="46.65772" lon="4.69236">
        <ele>230</ele>
        <time>2010-04-24T08:20:51Z</time>
      </trkpt>
      <trkpt lat="46.6572" lon="4.69214">
        <ele>229</ele>
        <time>2010-04-24T08:21:01Z</time>
      </trkpt>
      <trkpt lat="46.65671" lon="4.69194">
        <ele>228</ele>
        <time>2010-04-24T08:21:17Z</time>
      </trkpt>
      <trkpt lat="46.65623" lon="4.6917">
        <ele>228</ele>
        <time>2010-04-24T08:21:33Z</time>
      </trkpt>
      <trkpt lat="46.65572" lon="4.6915">
        <ele>227</ele>
        <time>2010-04-24T08:21:47Z</time>
      </trkpt>
      <trkpt lat="46.65521" lon="4.69133">
        <ele>226</ele>
        <time>2010-04-24T08:21:59Z</time>
      </trkpt>
      <trkpt lat="46.65469" lon="4.69113">
        <ele>227</ele>
        <time>2010-04-24T08:22:11Z</time>
      </trkpt>
      <trkpt lat="46.65419" lon="4.69094">
        <ele>228</ele>
        <time>2010-04-24T08:22:23Z</time>
      </trkpt>
      <trkpt lat="46.65369" lon="4.69074">
        <ele>227</ele>
        <time>2010-04-24T08:22:35Z</time>
      </trkpt>
      <trkpt lat="46.65319" lon="4.69056">
        <ele>229</ele>
        <time>2010-04-24T08:22:47Z</time>
      </trkpt>
      <trkpt lat="46.65271" lon="4.69036">
        <ele>229</ele>
        <time>2010-04-24T08:22:57Z</time>
      </trkpt>
      <trkpt lat="46.65219" lon="4.69018">
        <ele>229</ele>
        <time>2010-04-24T08:23:07Z</time>
      </trkpt>
      <trkpt lat="46.65166" lon="4.68998">
        <ele>230</ele>
        <time>2010-04-24T08:23:17Z</time>
      </trkpt>
      <trkpt lat="46.65117" lon="4.68979">
        <ele>232</ele>
        <time>2010-04-24T08:23:27Z</time>
      </trkpt>
      <trkpt lat="46.65063" lon="4.68959">
        <ele>234</ele>
        <time>2010-04-24T08:23:38Z</time>
      </trkpt>
      <trkpt lat="46.65014" lon="4.6894">
        <ele>234</ele>
        <time>2010-04-24T08:23:48Z</time>
      </trkpt>
      <trkpt lat="46.64965" lon="4.68922">
        <ele>235</ele>
        <time>2010-04-24T08:23:58Z</time>
      </trkpt>
      <trkpt lat="46.64916" lon="4.68902">
        <ele>235</ele>
        <time>2010-04-24T08:24:08Z</time>
      </trkpt>
      <trkpt lat="46.64866" lon="4.68884">
        <ele>235</ele>
        <time>2010-04-24T08:24:18Z</time>
      </trkpt>
      <trkpt lat="46.64814" lon="4.68869">
        <ele>234</ele>
        <time>2010-04-24T08:24:28Z</time>
      </trkpt>
      <trkpt lat="46.6476" lon="4.68858">
        <ele>234</ele>
        <time>2010-04-24T08:24:38Z</time>
      </trkpt>
      <trkpt lat="46.64708" lon="4.68851">
        <ele>234</ele>
        <time>2010-04-24T08:24:48Z</time>
      </trkpt>
      <trkpt lat="46.64654" lon="4.68846">
        <ele>235</ele>
        <time>2010-04-24T08:24:58Z</time>
      </trkpt>
      <trkpt lat="46.64604" lon="4.68842">
        <ele>235</ele>
        <time>2010-04-24T08:25:07Z</time>
      </trkpt>
      <trkpt lat="46.6455" lon="4.68837">
        <ele>235</ele>
        <time>2010-04-24T08:25:17Z</time>
      </trkpt>
      <trkpt lat="46.64493" lon="4.68831">
        <ele>235</ele>
        <time>2010-04-24T08:25:27Z</time>
      </trkpt>
      <trkpt lat="46.6444" lon="4.68826">
        <ele>235</ele>
        <time>2010-04-24T08:25:36Z</time>
      </trkpt>
      <trkpt lat="46.64386" lon="4.6882">
        <ele>235</ele>
        <time>2010-04-24T08:25:45Z</time>
      </trkpt>
      <trkpt lat="46.64333" lon="4.68816">
        <ele>235</ele>
        <time>2010-04-24T08:25:53Z</time>
      </trkpt>
      <trkpt lat="46.6428" lon="4.68811">
        <ele>233</ele>
        <time>2010-04-24T08:26:01Z</time>
      </trkpt>
      <trkpt lat="46.64227" lon="4.68805">
        <ele>231</ele>
        <time>2010-04-24T08:26:09Z</time>
      </trkpt>
      <trkpt lat="46.64172" lon="4.68799">
        <ele>230</ele>
        <time>2010-04-24T08:26:17Z</time>
      </trkpt>
      <trkpt lat="46.64117" lon="4.68793">
        <ele>230</ele>
        <time>2010-04-24T08:26:25Z</time>
      </trkpt>
      <trkpt lat="46.64064" lon="4.68788">
        <ele>230</ele>
        <time>2010-04-24T08:26:33Z</time>
      </trkpt>
      <trkpt lat="46.64011" lon="4.68783">
        <ele>231</ele>
        <time>2010-04-24T08:26:41Z</time>
      </trkpt>
      <trkpt lat="46.63953" lon="4.68777">
        <ele>232</ele>
        <time>2010-04-24T08:26:50Z</time>
      </trkpt>
      <trkpt lat="46.639" lon="4.68771">
        <ele>233</ele>
        <time>2010-04-24T08:26:59Z</time>
      </trkpt>
      <trkpt lat="46.63845" lon="4.68764">
        <ele>234</ele>
        <time>2010-04-24T08:27:09Z</time>
      </trkpt>
      <trkpt lat="46.63793" lon="4.68758">
        <ele>235</ele>
        <time>2010-04-24T08:27:19Z</time>
      </trkpt>
      <trkpt lat="46.63741" lon="4.68755">
        <ele>236</ele>
        <time>2010-04-24T08:27:29Z</time>
      </trkpt>
      <trkpt lat="46.6369" lon="4.6875">
        <ele>238</ele>
        <time>2010-04-24T08:27:39Z</time>
      </trkpt>
      <trkpt lat="46.63637" lon="4.68746">
        <ele>239</ele>
        <time>2010-04-24T08:27:53Z</time>
      </trkpt>
      <trkpt lat="46.63584" lon="4.6874">
        <ele>239</ele>
        <time>2010-04-24T08:28:04Z</time>
      </trkpt>
      <trkpt lat="46.6353" lon="4.6873">
        <ele>237</ele>
        <time>2010-04-24T08:28:15Z</time>
      </trkpt>
      <trkpt lat="46.63479" lon="4.68716">
        <ele>237</ele>
        <time>2010-04-24T08:28:25Z</time>
      </trkpt>
      <trkpt lat="46.63428" lon="4.68696">
        <ele>238</ele>
        <time>2010-04-24T08:28:35Z</time>
      </trkpt>
      <trkpt lat="46.63376" lon="4.68673">
        <ele>239</ele>
        <time>2010-04-24T08:28:46Z</time>
      </trkpt>
      <trkpt lat="46.63326" lon="4.68647">
        <ele>240</ele>
        <time>2010-04-24T08:28:56Z</time>
      </trkpt>
      <trkpt lat="46.63277" lon="4.68624">
        <ele>241</ele>
        <time>2010-04-24T08:29:06Z</time>
      </trkpt>
      <trkpt lat="46.63228" lon="4.68598">
        <ele>243</ele>
        <time>2010-04-24T08:29:22Z</time>
      </trkpt>
      <trkpt lat="46.63179" lon="4.68575">
        <ele>243</ele>
        <time>2010-04-24T08:29:36Z</time>
      </trkpt>
      <trkpt lat="46.63131" lon="4.68553">
        <ele>244</ele>
        <time>2010-04-24T08:29:48Z</time>
      </trkpt>
      <trkpt lat="46.63082" lon="4.6853">
        <ele>245</ele>
        <time>2010-04-24T08:30:01Z</time>
      </trkpt>
      <trkpt lat="46.63032" lon="4.68505">
        <ele>245</ele>
        <time>2010-04-24T08:30:15Z</time>
      </trkpt>
      <trkpt lat="46.62985" lon="4.68482">
        <ele>246</ele>
        <time>2010-04-24T08:30:25Z</time>
      </trkpt>
      <trkpt lat="46.62935" lon="4.68458">
        <ele>246</ele>
        <time>2010-04-24T08:30:35Z</time>
      </trkpt>
      <trkpt lat="46.62883" lon="4.68432">
        <ele>246</ele>
        <time>2010-04-24T08:30:46Z</time>
      </trkpt>
      <trkpt lat="46.62832" lon="4.68407">
        <ele>245</ele>
        <time>2010-04-24T08:30:57Z</time>
      </trkpt>
      <trkpt lat="46.62784" lon="4.68384">
        <ele>244</ele>
        <time>2010-04-24T08:31:07Z</time>
      </trkpt>
      <trkpt lat="46.62734" lon="4.68359">
        <ele>243</ele>
        <time>2010-04-24T08:31:16Z</time>
      </trkpt>
      <trkpt lat="46.62683" lon="4.68333">
        <ele>242</ele>
        <time>2010-04-24T08:31:25Z</time>
      </trkpt>
      <trkpt lat="46.62632" lon="4.68309">
        <ele>240</ele>
        <time>2010-04-24T08:31:34Z</time>
      </trkpt>
      <trkpt lat="46.62583" lon="4.68286">
        <ele>238</ele>
        <time>2010-04-24T08:31:42Z</time>
      </trkpt>
      <trkpt lat="46.62529" lon="4.68263">
        <ele>236</ele>
        <time>2010-04-24T08:31:51Z</time>
      </trkpt>
      <trkpt lat="46.62473" lon="4.68243">
        <ele>235</ele>
        <time>2010-04-24T08:32:00Z</time>
      </trkpt>
      <trkpt lat="46.62422" lon="4.68228">
        <ele>234</ele>
        <time>2010-04-24T08:32:08Z</time>
      </trkpt>
      <trkpt lat="46.62415" lon="4.68226">
        <ele>234</ele>
        <time>2010-04-24T08:32:09Z</time>
      </trkpt>
      <trkpt lat="46.62369" lon="4.68214">
        <ele>233</ele>
        <time>2010-04-24T08:32:16Z</time>
      </trkpt>
      <trkpt lat="46.62316" lon="4.682">
        <ele>231</ele>
        <time>2010-04-24T08:32:23Z</time>
      </trkpt>
      <trkpt lat="46.62262" lon="4.68187">
        <ele>231</ele>
        <time>2010-04-24T08:32:30Z</time>
      </trkpt>
      <trkpt lat="46.6221" lon="4.68173">
        <ele>230</ele>
        <time>2010-04-24T08:32:37Z</time>
      </trkpt>
      <trkpt lat="46.62158" lon="4.68159">
        <ele>229</ele>
        <time>2010-04-24T08:32:44Z</time>
      </trkpt>
      <trkpt lat="46.62099" lon="4.68144">
        <ele>227</ele>
        <time>2010-04-24T08:32:52Z</time>
      </trkpt>
      <trkpt lat="46.62041" lon="4.68129">
        <ele>226</ele>
        <time>2010-04-24T08:33:00Z</time>
      </trkpt>
      <trkpt lat="46.61983" lon="4.68115">
        <ele>225</ele>
        <time>2010-04-24T08:33:08Z</time>
      </trkpt>
      <trkpt lat="46.61927" lon="4.681">
        <ele>225</ele>
        <time>2010-04-24T08:33:16Z</time>
      </trkpt>
      <trkpt lat="46.61872" lon="4.68086">
        <ele>224</ele>
        <time>2010-04-24T08:33:24Z</time>
      </trkpt>
      <trkpt lat="46.61821" lon="4.68074">
        <ele>225</ele>
        <time>2010-04-24T08:33:32Z</time>
      </trkpt>
      <trkpt lat="46.61769" lon="4.68061">
        <ele>225</ele>
        <time>2010-04-24T08:33:41Z</time>
      </trkpt>
      <trkpt lat="46.61717" lon="4.68048">
        <ele>226</ele>
        <time>2010-04-24T08:33:51Z</time>
      </trkpt>
      <trkpt lat="46.61668" lon="4.68031">
        <ele>226</ele>
        <time>2010-04-24T08:34:01Z</time>
      </trkpt>
      <trkpt lat="46.61619" lon="4.68009">
        <ele>227</ele>
        <time>2010-04-24T08:34:11Z</time>
      </trkpt>
      <trkpt lat="46.61569" lon="4.67983">
        <ele>228</ele>
        <time>2010-04-24T08:34:22Z</time>
      </trkpt>
      <trkpt lat="46.6152" lon="4.67953">
        <ele>230</ele>
        <time>2010-04-24T08:34:33Z</time>
      </trkpt>
      <trkpt lat="46.61472" lon="4.67922">
        <ele>231</ele>
        <time>2010-04-24T08:34:44Z</time>
      </trkpt>
      <trkpt lat="46.61424" lon="4.67888">
        <ele>233</ele>
        <time>2010-04-24T08:34:55Z</time>
      </trkpt>
      <trkpt lat="46.61379" lon="4.67853">
        <ele>234</ele>
        <time>2010-04-24T08:35:06Z</time>
      </trkpt>
      <trkpt lat="46.61335" lon="4.67814">
        <ele>236</ele>
        <time>2010-04-24T08:35:17Z</time>
      </trkpt>
      <trkpt lat="46.61292" lon="4.67775">
        <ele>238</ele>
        <time>2010-04-24T08:35:28Z</time>
      </trkpt>
      <trkpt lat="46.61249" lon="4.67734">
        <ele>239</ele>
        <time>2010-04-24T08:35:39Z</time>
      </trkpt>
      <trkpt lat="46.61209" lon="4.6769">
        <ele>240</ele>
        <time>2010-04-24T08:35:51Z</time>
      </trkpt>
      <trkpt lat="46.61169" lon="4.67649">
        <ele>241</ele>
        <time>2010-04-24T08:36:20Z</time>
      </trkpt>
      <trkpt lat="46.61134" lon="4.67597">
        <ele>241</ele>
        <time>2010-04-24T08:36:32Z</time>
      </trkpt>
      <trkpt lat="46.61097" lon="4.67543">
        <ele>242</ele>
        <time>2010-04-24T08:36:42Z</time>
      </trkpt>
      <trkpt lat="46.6106" lon="4.67482">
        <ele>241</ele>
        <time>2010-04-24T08:36:52Z</time>
      </trkpt>
      <trkpt lat="46.61026" lon="4.67425">
        <ele>239</ele>
        <time>2010-04-24T08:37:01Z</time>
      </trkpt>
      <trkpt lat="46.6099" lon="4.67365">
        <ele>237</ele>
        <time>2010-04-24T08:37:10Z</time>
      </trkpt>
      <trkpt lat="46.60953" lon="4.67303">
        <ele>235</ele>
        <time>2010-04-24T08:37:19Z</time>
      </trkpt>
      <trkpt lat="46.60918" lon="4.67246">
        <ele>234</ele>
        <time>2010-04-24T08:37:28Z</time>
      </trkpt>
      <trkpt lat="46.6088" lon="4.67188">
        <ele>233</ele>
        <time>2010-04-24T08:37:37Z</time>
      </trkpt>
      <trkpt lat="46.60837" lon="4.67133">
        <ele>233</ele>
        <time>2010-04-24T08:37:46Z</time>
      </trkpt>
      <trkpt lat="46.608" lon="4.67076">
        <ele>234</ele>
        <time>2010-04-24T08:37:55Z</time>
      </trkpt>
      <trkpt lat="46.60765" lon="4.6702">
        <ele>235</ele>
        <time>2010-04-24T08:38:05Z</time>
      </trkpt>
      <trkpt lat="46.60725" lon="4.66974">
        <ele>242</ele>
        <time>2010-04-24T08:47:02Z</time>
      </trkpt>
      <trkpt lat="46.60693" lon="4.66921">
        <ele>238</ele>
        <time>2010-04-24T08:47:13Z</time>
      </trkpt>
      <trkpt lat="46.60655" lon="4.66865">
        <ele>234</ele>
        <time>2010-04-24T08:47:25Z</time>
      </trkpt>
      <trkpt lat="46.60611" lon="4.6682">
        <ele>233</ele>
        <time>2010-04-24T08:47:36Z</time>
      </trkpt>
      <trkpt lat="46.60562" lon="4.66786">
        <ele>232</ele>
        <time>2010-04-24T08:47:46Z</time>
      </trkpt>
      <trkpt lat="46.6051" lon="4.66762">
        <ele>231</ele>
        <time>2010-04-24T08:47:56Z</time>
      </trkpt>
      <trkpt lat="46.60455" lon="4.6675">
        <ele>230</ele>
        <time>2010-04-24T08:48:06Z</time>
      </trkpt>
      <trkpt lat="46.60403" lon="4.66755">
        <ele>229</ele>
        <time>2010-04-24T08:48:15Z</time>
      </trkpt>
      <trkpt lat="46.60348" lon="4.66771">
        <ele>227</ele>
        <time>2010-04-24T08:48:23Z</time>
      </trkpt>
      <trkpt lat="46.60297" lon="4.66798">
        <ele>225</ele>
        <time>2010-04-24T08:48:31Z</time>
      </trkpt>
      <trkpt lat="46.60249" lon="4.66836">
        <ele>223</ele>
        <time>2010-04-24T08:48:39Z</time>
      </trkpt>
      <trkpt lat="46.60201" lon="4.66879">
        <ele>222</ele>
        <time>2010-04-24T08:48:47Z</time>
      </trkpt>
      <trkpt lat="46.60153" lon="4.66922">
        <ele>221</ele>
        <time>2010-04-24T08:48:55Z</time>
      </trkpt>
      <trkpt lat="46.60107" lon="4.66962">
        <ele>220</ele>
        <time>2010-04-24T08:49:03Z</time>
      </trkpt>
      <trkpt lat="46.6006" lon="4.67004">
        <ele>219</ele>
        <time>2010-04-24T08:49:12Z</time>
      </trkpt>
      <trkpt lat="46.60013" lon="4.67049">
        <ele>218</ele>
        <time>2010-04-24T08:49:21Z</time>
      </trkpt>
      <trkpt lat="46.59966" lon="4.67092">
        <ele>217</ele>
        <time>2010-04-24T08:49:29Z</time>
      </trkpt>
      <trkpt lat="46.59921" lon="4.67133">
        <ele>217</ele>
        <time>2010-04-24T08:49:36Z</time>
      </trkpt>
      <trkpt lat="46.5987" lon="4.67178">
        <ele>216</ele>
        <time>2010-04-24T08:49:44Z</time>
      </trkpt>
      <trkpt lat="46.59822" lon="4.67221">
        <ele>214</ele>
        <time>2010-04-24T08:49:52Z</time>
      </trkpt>
      <trkpt lat="46.59776" lon="4.67262">
        <ele>214</ele>
        <time>2010-04-24T08:49:59Z</time>
      </trkpt>
      <trkpt lat="46.59731" lon="4.67304">
        <ele>213</ele>
        <time>2010-04-24T08:50:06Z</time>
      </trkpt>
      <trkpt lat="46.59686" lon="4.67345">
        <ele>213</ele>
        <time>2010-04-24T08:50:13Z</time>
      </trkpt>
      <trkpt lat="46.59641" lon="4.67385">
        <ele>212</ele>
        <time>2010-04-24T08:50:20Z</time>
      </trkpt>
      <trkpt lat="46.5959" lon="4.67431">
        <ele>210</ele>
        <time>2010-04-24T08:50:28Z</time>
      </trkpt>
      <trkpt lat="46.59546" lon="4.67472">
        <ele>209</ele>
        <time>2010-04-24T08:50:35Z</time>
      </trkpt>
      <trkpt lat="46.595" lon="4.67513">
        <ele>208</ele>
        <time>2010-04-24T08:50:42Z</time>
      </trkpt>
      <trkpt lat="46.59452" lon="4.67557">
        <ele>207</ele>
        <time>2010-04-24T08:50:50Z</time>
      </trkpt>
      <trkpt lat="46.59404" lon="4.676">
        <ele>206</ele>
        <time>2010-04-24T08:50:58Z</time>
      </trkpt>
      <trkpt lat="46.59352" lon="4.67646">
        <ele>205</ele>
        <time>2010-04-24T08:51:06Z</time>
      </trkpt>
      <trkpt lat="46.59302" lon="4.67692">
        <ele>204</ele>
        <time>2010-04-24T08:51:14Z</time>
      </trkpt>
      <trkpt lat="46.59253" lon="4.67736">
        <ele>203</ele>
        <time>2010-04-24T08:51:22Z</time>
      </trkpt>
      <trkpt lat="46.59201" lon="4.67776">
        <ele>202</ele>
        <time>2010-04-24T08:51:30Z</time>
      </trkpt>
      <trkpt lat="46.59146" lon="4.67808">
        <ele>201</ele>
        <time>2010-04-24T08:51:38Z</time>
      </trkpt>
      <trkpt lat="46.59095" lon="4.6783">
        <ele>200</ele>
        <time>2010-04-24T08:51:45Z</time>
      </trkpt>
      <trkpt lat="46.59042" lon="4.67844">
        <ele>199</ele>
        <time>2010-04-24T08:51:52Z</time>
      </trkpt>
      <trkpt lat="46.58988" lon="4.6785">
        <ele>198</ele>
        <time>2010-04-24T08:51:59Z</time>
      </trkpt>
      <trkpt lat="46.58929" lon="4.67848">
        <ele>198</ele>
        <time>2010-04-24T08:52:07Z</time>
      </trkpt>
      <trkpt lat="46.58875" lon="4.67838">
        <ele>196</ele>
        <time>2010-04-24T08:52:17Z</time>
      </trkpt>
      <trkpt lat="46.58828" lon="4.67821">
        <ele>196</ele>
        <time>2010-04-24T08:52:33Z</time>
      </trkpt>
      <trkpt lat="46.58779" lon="4.67802">
        <ele>195</ele>
        <time>2010-04-24T08:52:42Z</time>
      </trkpt>
      <trkpt lat="46.58725" lon="4.67777">
        <ele>196</ele>
        <time>2010-04-24T08:52:51Z</time>
      </trkpt>
      <trkpt lat="46.58673" lon="4.67749">
        <ele>197</ele>
        <time>2010-04-24T08:53:00Z</time>
      </trkpt>
      <trkpt lat="46.58622" lon="4.67721">
        <ele>198</ele>
        <time>2010-04-24T08:53:09Z</time>
      </trkpt>
      <trkpt lat="46.5857" lon="4.67694">
        <ele>198</ele>
        <time>2010-04-24T08:53:18Z</time>
      </trkpt>
      <trkpt lat="46.58517" lon="4.6767">
        <ele>197</ele>
        <time>2010-04-24T08:53:26Z</time>
      </trkpt>
      <trkpt lat="46.58463" lon="4.67643">
        <ele>196</ele>
        <time>2010-04-24T08:53:35Z</time>
      </trkpt>
      <trkpt lat="46.5841" lon="4.67617">
        <ele>196</ele>
        <time>2010-04-24T08:53:44Z</time>
      </trkpt>
      <trkpt lat="46.58357" lon="4.67592">
        <ele>197</ele>
        <time>2010-04-24T08:53:53Z</time>
      </trkpt>
      <trkpt lat="46.58302" lon="4.67571">
        <ele>198</ele>
        <time>2010-04-24T08:54:02Z</time>
      </trkpt>
      <trkpt lat="46.58245" lon="4.67558">
        <ele>198</ele>
        <time>2010-04-24T08:54:11Z</time>
      </trkpt>
      <trkpt lat="46.5819" lon="4.67554">
        <ele>196</ele>
        <time>2010-04-24T08:54:20Z</time>
      </trkpt>
      <trkpt lat="46.58135" lon="4.67558">
        <ele>196</ele>
        <time>2010-04-24T08:54:30Z</time>
      </trkpt>
      <trkpt lat="46.58084" lon="4.67566">
        <ele>196</ele>
        <time>2010-04-24T08:54:39Z</time>
      </trkpt>
      <trkpt lat="46.58029" lon="4.67576">
        <ele>195</ele>
        <time>2010-04-24T08:54:48Z</time>
      </trkpt>
      <trkpt lat="46.57973" lon="4.67585">
        <ele>195</ele>
        <time>2010-04-24T08:54:57Z</time>
      </trkpt>
      <trkpt lat="46.57918" lon="4.67593">
        <ele>195</ele>
        <time>2010-04-24T08:55:06Z</time>
      </trkpt>
      <trkpt lat="46.57862" lon="4.67602">
        <ele>195</ele>
        <time>2010-04-24T08:55:15Z</time>
      </trkpt>
      <trkpt lat="46.57807" lon="4.67611">
        <ele>195</ele>
        <time>2010-04-24T08:55:24Z</time>
      </trkpt>
      <trkpt lat="46.57751" lon="4.67619">
        <ele>195</ele>
        <time>2010-04-24T08:55:33Z</time>
      </trkpt>
      <trkpt lat="46.57696" lon="4.67628">
        <ele>196</ele>
        <time>2010-04-24T08:55:42Z</time>
      </trkpt>
      <trkpt lat="46.57641" lon="4.67635">
        <ele>196</ele>
        <time>2010-04-24T08:55:51Z</time>
      </trkpt>
      <trkpt lat="46.57589" lon="4.67644">
        <ele>195</ele>
        <time>2010-04-24T08:56:00Z</time>
      </trkpt>
      <trkpt lat="46.57534" lon="4.67653">
        <ele>196</ele>
        <time>2010-04-24T08:56:10Z</time>
      </trkpt>
      <trkpt lat="46.57478" lon="4.67662">
        <ele>196</ele>
        <time>2010-04-24T08:56:20Z</time>
      </trkpt>
      <trkpt lat="46.57428" lon="4.67669">
        <ele>196</ele>
        <time>2010-04-24T08:56:29Z</time>
      </trkpt>
      <trkpt lat="46.57376" lon="4.67677">
        <ele>197</ele>
        <time>2010-04-24T08:56:39Z</time>
      </trkpt>
      <trkpt lat="46.57323" lon="4.67685">
        <ele>197</ele>
        <time>2010-04-24T08:56:49Z</time>
      </trkpt>
      <trkpt lat="46.57272" lon="4.67693">
        <ele>197</ele>
        <time>2010-04-24T08:56:58Z</time>
      </trkpt>
      <trkpt lat="46.57221" lon="4.67701">
        <ele>197</ele>
        <time>2010-04-24T08:57:08Z</time>
      </trkpt>
      <trkpt lat="46.57167" lon="4.67709">
        <ele>196</ele>
        <time>2010-04-24T08:57:19Z</time>
      </trkpt>
      <trkpt lat="46.57113" lon="4.67718">
        <ele>197</ele>
        <time>2010-04-24T08:57:29Z</time>
      </trkpt>
      <trkpt lat="46.57057" lon="4.67727">
        <ele>196</ele>
        <time>2010-04-24T08:57:39Z</time>
      </trkpt>
      <trkpt lat="46.57002" lon="4.67735">
        <ele>196</ele>
        <time>2010-04-24T08:57:49Z</time>
      </trkpt>
      <trkpt lat="46.56947" lon="4.67744">
        <ele>197</ele>
        <time>2010-04-24T08:57:59Z</time>
      </trkpt>
      <trkpt lat="46.56892" lon="4.67753">
        <ele>197</ele>
        <time>2010-04-24T08:58:09Z</time>
      </trkpt>
      <trkpt lat="46.5684" lon="4.6776">
        <ele>197</ele>
        <time>2010-04-24T08:58:18Z</time>
      </trkpt>
      <trkpt lat="46.56789" lon="4.67768">
        <ele>198</ele>
        <time>2010-04-24T08:58:27Z</time>
      </trkpt>
      <trkpt lat="46.56738" lon="4.67775">
        <ele>199</ele>
        <time>2010-04-24T08:58:36Z</time>
      </trkpt>
      <trkpt lat="46.56683" lon="4.67784">
        <ele>199</ele>
        <time>2010-04-24T08:58:46Z</time>
      </trkpt>
      <trkpt lat="46.56628" lon="4.67793">
        <ele>200</ele>
        <time>2010-04-24T08:58:56Z</time>
      </trkpt>
      <trkpt lat="46.56576" lon="4.67801">
        <ele>200</ele>
        <time>2010-04-24T08:59:06Z</time>
      </trkpt>
      <trkpt lat="46.56523" lon="4.67809">
        <ele>200</ele>
        <time>2010-04-24T08:59:16Z</time>
      </trkpt>
      <trkpt lat="46.56469" lon="4.67817">
        <ele>201</ele>
        <time>2010-04-24T08:59:26Z</time>
      </trkpt>
      <trkpt lat="46.56419" lon="4.67824">
        <ele>201</ele>
        <time>2010-04-24T08:59:35Z</time>
      </trkpt>
      <trkpt lat="46.56365" lon="4.67833">
        <ele>202</ele>
        <time>2010-04-24T08:59:45Z</time>
      </trkpt>
      <trkpt lat="46.56312" lon="4.6784">
        <ele>203</ele>
        <time>2010-04-24T08:59:55Z</time>
      </trkpt>
      <trkpt lat="46.56258" lon="4.67848">
        <ele>203</ele>
        <time>2010-04-24T09:00:05Z</time>
      </trkpt>
      <trkpt lat="46.56205" lon="4.67857">
        <ele>204</ele>
        <time>2010-04-24T09:00:14Z</time>
      </trkpt>
      <trkpt lat="46.56154" lon="4.67864">
        <ele>205</ele>
        <time>2010-04-24T09:00:23Z</time>
      </trkpt>
      <trkpt lat="46.56103" lon="4.67872">
        <ele>205</ele>
        <time>2010-04-24T09:00:32Z</time>
      </trkpt>
      <trkpt lat="46.56051" lon="4.67881">
        <ele>206</ele>
        <time>2010-04-24T09:00:41Z</time>
      </trkpt>
      <trkpt lat="46.55999" lon="4.67889">
        <ele>206</ele>
        <time>2010-04-24T09:00:50Z</time>
      </trkpt>
      <trkpt lat="46.55946" lon="4.67898">
        <ele>206</ele>
        <time>2010-04-24T09:00:59Z</time>
      </trkpt>
      <trkpt lat="46.55893" lon="4.67905">
        <ele>206</ele>
        <time>2010-04-24T09:01:08Z</time>
      </trkpt>
      <trkpt lat="46.55838" lon="4.67914">
        <ele>206</ele>
        <time>2010-04-24T09:01:17Z</time>
      </trkpt>
      <trkpt lat="46.55784" lon="4.67921">
        <ele>207</ele>
        <time>2010-04-24T09:01:26Z</time>
      </trkpt>
      <trkpt lat="46.5573" lon="4.67929">
        <ele>206</ele>
        <time>2010-04-24T09:01:35Z</time>
      </trkpt>
      <trkpt lat="46.55676" lon="4.67938">
        <ele>206</ele>
        <time>2010-04-24T09:01:44Z</time>
      </trkpt>
      <trkpt lat="46.55622" lon="4.67946">
        <ele>206</ele>
        <time>2010-04-24T09:01:53Z</time>
      </trkpt>
      <trkpt lat="46.55569" lon="4.67954">
        <ele>206</ele>
        <time>2010-04-24T09:02:02Z</time>
      </trkpt>
      <trkpt lat="46.55516" lon="4.67962">
        <ele>206</ele>
        <time>2010-04-24T09:02:11Z</time>
      </trkpt>
      <trkpt lat="46.55462" lon="4.67971">
        <ele>206</ele>
        <time>2010-04-24T09:02:20Z</time>
      </trkpt>
      <trkpt lat="46.55408" lon="4.67979">
        <ele>206</ele>
        <time>2010-04-24T09:02:29Z</time>
      </trkpt>
      <trkpt lat="46.55352" lon="4.67988">
        <ele>206</ele>
        <time>2010-04-24T09:02:38Z</time>
      </trkpt>
      <trkpt lat="46.55298" lon="4.67997">
        <ele>206</ele>
        <time>2010-04-24T09:02:47Z</time>
      </trkpt>
      <trkpt lat="46.55245" lon="4.68005">
        <ele>205</ele>
        <time>2010-04-24T09:02:56Z</time>
      </trkpt>
      <trkpt lat="46.55188" lon="4.68013">
        <ele>205</ele>
        <time>2010-04-24T09:03:05Z</time>
      </trkpt>
      <trkpt lat="46.55133" lon="4.68021">
        <ele>205</ele>
        <time>2010-04-24T09:03:14Z</time>
      </trkpt>
      <trkpt lat="46.55077" lon="4.6803">
        <ele>205</ele>
        <time>2010-04-24T09:03:23Z</time>
      </trkpt>
      <trkpt lat="46.55021" lon="4.68039">
        <ele>204</ele>
        <time>2010-04-24T09:03:32Z</time>
      </trkpt>
      <trkpt lat="46.54966" lon="4.68043">
        <ele>205</ele>
        <time>2010-04-24T09:03:41Z</time>
      </trkpt>
      <trkpt lat="46.54914" lon="4.68045">
        <ele>205</ele>
        <time>2010-04-24T09:03:50Z</time>
      </trkpt>
      <trkpt lat="46.54862" lon="4.68048">
        <ele>205</ele>
        <time>2010-04-24T09:04:02Z</time>
      </trkpt>
      <trkpt lat="46.54806" lon="4.68047">
        <ele>212</ele>
        <time>2010-04-24T09:09:27Z</time>
      </trkpt>
      <trkpt lat="46.54753" lon="4.68048">
        <ele>212</ele>
        <time>2010-04-24T09:09:38Z</time>
      </trkpt>
      <trkpt lat="46.547" lon="4.6805">
        <ele>211</ele>
        <time>2010-04-24T09:09:48Z</time>
      </trkpt>
      <trkpt lat="46.54646" lon="4.68051">
        <ele>211</ele>
        <time>2010-04-24T09:09:58Z</time>
      </trkpt>
      <trkpt lat="46.54594" lon="4.68052">
        <ele>210</ele>
        <time>2010-04-24T09:10:08Z</time>
      </trkpt>
      <trkpt lat="46.54541" lon="4.68053">
        <ele>209</ele>
        <time>2010-04-24T09:10:18Z</time>
      </trkpt>
      <trkpt lat="46.54489" lon="4.68054">
        <ele>208</ele>
        <time>2010-04-24T09:10:27Z</time>
      </trkpt>
      <trkpt lat="46.54438" lon="4.68057">
        <ele>205</ele>
        <time>2010-04-24T09:11:11Z</time>
      </trkpt>
      <trkpt lat="46.54389" lon="4.68056">
        <ele>206</ele>
        <time>2010-04-24T09:12:25Z</time>
      </trkpt>
      <trkpt lat="46.5434" lon="4.68058">
        <ele>205</ele>
        <time>2010-04-24T09:12:38Z</time>
      </trkpt>
      <trkpt lat="46.5429" lon="4.68059">
        <ele>205</ele>
        <time>2010-04-24T09:12:49Z</time>
      </trkpt>
      <trkpt lat="46.54236" lon="4.6806">
        <ele>205</ele>
        <time>2010-04-24T09:13:00Z</time>
      </trkpt>
      <trkpt lat="46.54183" lon="4.68061">
        <ele>205</ele>
        <time>2010-04-24T09:13:10Z</time>
      </trkpt>
      <trkpt lat="46.54132" lon="4.68062">
        <ele>206</ele>
        <time>2010-04-24T09:13:21Z</time>
      </trkpt>
      <trkpt lat="46.54081" lon="4.68062">
        <ele>205</ele>
        <time>2010-04-24T09:13:33Z</time>
      </trkpt>
      <trkpt lat="46.5403" lon="4.68083">
        <ele>205</ele>
        <time>2010-04-24T09:13:44Z</time>
      </trkpt>
      <trkpt lat="46.53975" lon="4.68084">
        <ele>206</ele>
        <time>2010-04-24T09:13:54Z</time>
      </trkpt>
      <trkpt lat="46.53924" lon="4.68088">
        <ele>206</ele>
        <time>2010-04-24T09:14:03Z</time>
      </trkpt>
      <trkpt lat="46.53872" lon="4.6809">
        <ele>205</ele>
        <time>2010-04-24T09:14:12Z</time>
      </trkpt>
      <trkpt lat="46.5382" lon="4.68103">
        <ele>205</ele>
        <time>2010-04-24T09:14:21Z</time>
      </trkpt>
      <trkpt lat="46.53771" lon="4.68121">
        <ele>205</ele>
        <time>2010-04-24T09:14:30Z</time>
      </trkpt>
      <trkpt lat="46.53719" lon="4.68143">
        <ele>205</ele>
        <time>2010-04-24T09:14:41Z</time>
      </trkpt>
      <trkpt lat="46.53672" lon="4.68169">
        <ele>205</ele>
        <time>2010-04-24T09:14:58Z</time>
      </trkpt>
      <trkpt lat="46.5363" lon="4.68213">
        <ele>205</ele>
        <time>2010-04-24T09:15:20Z</time>
      </trkpt>
      <trkpt lat="46.53592" lon="4.68259">
        <ele>204</ele>
        <time>2010-04-24T09:15:32Z</time>
      </trkpt>
      <trkpt lat="46.53552" lon="4.68306">
        <ele>204</ele>
        <time>2010-04-24T09:15:49Z</time>
      </trkpt>
      <trkpt lat="46.53509" lon="4.68354">
        <ele>204</ele>
        <time>2010-04-24T09:16:00Z</time>
      </trkpt>
      <trkpt lat="46.53463" lon="4.68393">
        <ele>204</ele>
        <time>2010-04-24T09:16:09Z</time>
      </trkpt>
      <trkpt lat="46.53412" lon="4.6842">
        <ele>205</ele>
        <time>2010-04-24T09:16:18Z</time>
      </trkpt>
      <trkpt lat="46.5336" lon="4.68438">
        <ele>205</ele>
        <time>2010-04-24T09:16:27Z</time>
      </trkpt>
      <trkpt lat="46.53307" lon="4.68448">
        <ele>206</ele>
        <time>2010-04-24T09:16:36Z</time>
      </trkpt>
      <trkpt lat="46.53254" lon="4.68457">
        <ele>206</ele>
        <time>2010-04-24T09:16:45Z</time>
      </trkpt>
      <trkpt lat="46.53204" lon="4.68465">
        <ele>206</ele>
        <time>2010-04-24T09:16:54Z</time>
      </trkpt>
      <trkpt lat="46.53151" lon="4.68475">
        <ele>206</ele>
        <time>2010-04-24T09:17:03Z</time>
      </trkpt>
      <trkpt lat="46.53099" lon="4.68484">
        <ele>206</ele>
        <time>2010-04-24T09:17:12Z</time>
      </trkpt>
      <trkpt lat="46.53047" lon="4.68494">
        <ele>206</ele>
        <time>2010-04-24T09:17:21Z</time>
      </trkpt>
      <trkpt lat="46.52995" lon="4.68504">
        <ele>206</ele>
        <time>2010-04-24T09:17:30Z</time>
      </trkpt>
      <trkpt lat="46.52944" lon="4.68511">
        <ele>206</ele>
        <time>2010-04-24T09:17:39Z</time>
      </trkpt>
      <trkpt lat="46.52892" lon="4.68513">
        <ele>206</ele>
        <time>2010-04-24T09:17:48Z</time>
      </trkpt>
      <trkpt lat="46.52841" lon="4.68507">
        <ele>206</ele>
        <time>2010-04-24T09:17:57Z</time>
      </trkpt>
      <trkpt lat="46.52789" lon="4.685">
        <ele>206</ele>
        <time>2010-04-24T09:18:06Z</time>
      </trkpt>
      <trkpt lat="46.52736" lon="4.68493">
        <ele>206</ele>
        <time>2010-04-24T09:18:15Z</time>
      </trkpt>
      <trkpt lat="46.52681" lon="4.68485">
        <ele>205</ele>
        <time>2010-04-24T09:18:24Z</time>
      </trkpt>
      <trkpt lat="46.52623" lon="4.68477">
        <ele>205</ele>
        <time>2010-04-24T09:18:33Z</time>
      </trkpt>
      <trkpt lat="46.52572" lon="4.6847">
        <ele>205</ele>
        <time>2010-04-24T09:18:41Z</time>
      </trkpt>
      <trkpt lat="46.52516" lon="4.68463">
        <ele>206</ele>
        <time>2010-04-24T09:18:50Z</time>
      </trkpt>
      <trkpt lat="46.52463" lon="4.68455">
        <ele>206</ele>
        <time>2010-04-24T09:18:59Z</time>
      </trkpt>
      <trkpt lat="46.5241" lon="4.68448">
        <ele>206</ele>
        <time>2010-04-24T09:19:08Z</time>
      </trkpt>
      <trkpt lat="46.52354" lon="4.68441">
        <ele>205</ele>
        <time>2010-04-24T09:19:18Z</time>
      </trkpt>
      <trkpt lat="46.52301" lon="4.68433">
        <ele>205</ele>
        <time>2010-04-24T09:19:28Z</time>
      </trkpt>
      <trkpt lat="46.52246" lon="4.68425">
        <ele>205</ele>
        <time>2010-04-24T09:19:37Z</time>
      </trkpt>
      <trkpt lat="46.52191" lon="4.68418">
        <ele>205</ele>
        <time>2010-04-24T09:19:46Z</time>
      </trkpt>
      <trkpt lat="46.52136" lon="4.68409">
        <ele>206</ele>
        <time>2010-04-24T09:19:55Z</time>
      </trkpt>
      <trkpt lat="46.52081" lon="4.68393">
        <ele>206</ele>
        <time>2010-04-24T09:20:04Z</time>
      </trkpt>
      <trkpt lat="46.52028" lon="4.68372">
        <ele>207</ele>
        <time>2010-04-24T09:20:13Z</time>
      </trkpt>
      <trkpt lat="46.51974" lon="4.68353">
        <ele>208</ele>
        <time>2010-04-24T09:20:22Z</time>
      </trkpt>
      <trkpt lat="46.51924" lon="4.68332">
        <ele>208</ele>
        <time>2010-04-24T09:20:31Z</time>
      </trkpt>
      <trkpt lat="46.51871" lon="4.68313">
        <ele>208</ele>
        <time>2010-04-24T09:20:40Z</time>
      </trkpt>
      <trkpt lat="46.5182" lon="4.68294">
        <ele>209</ele>
        <time>2010-04-24T09:20:49Z</time>
      </trkpt>
      <trkpt lat="46.51769" lon="4.68273">
        <ele>211</ele>
        <time>2010-04-24T09:20:58Z</time>
      </trkpt>
      <trkpt lat="46.51716" lon="4.68255">
        <ele>212</ele>
        <time>2010-04-24T09:21:07Z</time>
      </trkpt>
      <trkpt lat="46.51665" lon="4.68236">
        <ele>213</ele>
        <time>2010-04-24T09:21:16Z</time>
      </trkpt>
      <trkpt lat="46.51614" lon="4.68217">
        <ele>212</ele>
        <time>2010-04-24T09:21:25Z</time>
      </trkpt>
      <trkpt lat="46.51563" lon="4.68197">
        <ele>212</ele>
        <time>2010-04-24T09:21:34Z</time>
      </trkpt>
      <trkpt lat="46.51511" lon="4.68179">
        <ele>212</ele>
        <time>2010-04-24T09:21:43Z</time>
      </trkpt>
      <trkpt lat="46.51458" lon="4.68163">
        <ele>212</ele>
        <time>2010-04-24T09:21:52Z</time>
      </trkpt>
      <trkpt lat="46.51406" lon="4.68148">
        <ele>212</ele>
        <time>2010-04-24T09:22:01Z</time>
      </trkpt>
      <trkpt lat="46.51355" lon="4.68134">
        <ele>212</ele>
        <time>2010-04-24T09:22:10Z</time>
      </trkpt>
      <trkpt lat="46.51305" lon="4.68119">
        <ele>212</ele>
        <time>2010-04-24T09:22:19Z</time>
      </trkpt>
      <trkpt lat="46.51255" lon="4.68105">
        <ele>212</ele>
        <time>2010-04-24T09:22:29Z</time>
      </trkpt>
      <trkpt lat="46.51206" lon="4.6809">
        <ele>212</ele>
        <time>2010-04-24T09:22:45Z</time>
      </trkpt>
      <trkpt lat="46.51158" lon="4.68078">
        <ele>211</ele>
        <time>2010-04-24T09:23:03Z</time>
      </trkpt>
      <trkpt lat="46.51108" lon="4.68064">
        <ele>211</ele>
        <time>2010-04-24T09:23:15Z</time>
      </trkpt>
      <trkpt lat="46.51057" lon="4.68049">
        <ele>214</ele>
        <time>2010-04-24T09:23:43Z</time>
      </trkpt>
      <trkpt lat="46.51004" lon="4.68035">
        <ele>214</ele>
        <time>2010-04-24T09:23:54Z</time>
      </trkpt>
      <trkpt lat="46.50951" lon="4.6802">
        <ele>214</ele>
        <time>2010-04-24T09:24:04Z</time>
      </trkpt>
      <trkpt lat="46.50901" lon="4.68005">
        <ele>214</ele>
        <time>2010-04-24T09:24:13Z</time>
      </trkpt>
      <trkpt lat="46.5085" lon="4.6799">
        <ele>213</ele>
        <time>2010-04-24T09:24:22Z</time>
      </trkpt>
      <trkpt lat="46.50797" lon="4.67976">
        <ele>213</ele>
        <time>2010-04-24T09:24:31Z</time>
      </trkpt>
      <trkpt lat="46.50743" lon="4.6796">
        <ele>213</ele>
        <time>2010-04-24T09:24:40Z</time>
      </trkpt>
      <trkpt lat="46.50689" lon="4.67945">
        <ele>214</ele>
        <time>2010-04-24T09:24:49Z</time>
      </trkpt>
      <trkpt lat="46.50635" lon="4.6793">
        <ele>214</ele>
        <time>2010-04-24T09:24:58Z</time>
      </trkpt>
      <trkpt lat="46.5058" lon="4.67914">
        <ele>215</ele>
        <time>2010-04-24T09:25:07Z</time>
      </trkpt>
      <trkpt lat="46.50526" lon="4.67899">
        <ele>214</ele>
        <time>2010-04-24T09:25:16Z</time>
      </trkpt>
      <trkpt lat="46.5047" lon="4.67883">
        <ele>214</ele>
        <time>2010-04-24T09:25:25Z</time>
      </trkpt>
      <trkpt lat="46.50416" lon="4.67867">
        <ele>213</ele>
        <time>2010-04-24T09:25:34Z</time>
      </trkpt>
      <trkpt lat="46.50363" lon="4.67857">
        <ele>214</ele>
        <time>2010-04-24T09:25:43Z</time>
      </trkpt>
      <trkpt lat="46.50312" lon="4.67854">
        <ele>214</ele>
        <time>2010-04-24T09:25:53Z</time>
      </trkpt>
      <trkpt lat="46.50261" lon="4.67859">
        <ele>214</ele>
        <time>2010-04-24T09:26:13Z</time>
      </trkpt>
      <trkpt lat="46.50212" lon="4.67873">
        <ele>214</ele>
        <time>2010-04-24T09:26:26Z</time>
      </trkpt>
      <trkpt lat="46.50161" lon="4.6789">
        <ele>215</ele>
        <time>2010-04-24T09:26:36Z</time>
      </trkpt>
      <trkpt lat="46.5011" lon="4.67907">
        <ele>215</ele>
        <time>2010-04-24T09:26:45Z</time>
      </trkpt>
      <trkpt lat="46.50055" lon="4.67926">
        <ele>215</ele>
        <time>2010-04-24T09:26:55Z</time>
      </trkpt>
      <trkpt lat="46.50005" lon="4.67943">
        <ele>215</ele>
        <time>2010-04-24T09:27:04Z</time>
      </trkpt>
      <trkpt lat="46.49954" lon="4.67962">
        <ele>216</ele>
        <time>2010-04-24T09:27:13Z</time>
      </trkpt>
      <trkpt lat="46.49902" lon="4.6798">
        <ele>216</ele>
        <time>2010-04-24T09:27:22Z</time>
      </trkpt>
      <trkpt lat="46.49847" lon="4.67999">
        <ele>217</ele>
        <time>2010-04-24T09:27:31Z</time>
      </trkpt>
      <trkpt lat="46.49794" lon="4.68017">
        <ele>217</ele>
        <time>2010-04-24T09:27:40Z</time>
      </trkpt>
      <trkpt lat="46.49741" lon="4.68035">
        <ele>217</ele>
        <time>2010-04-24T09:27:49Z</time>
      </trkpt>
      <trkpt lat="46.49688" lon="4.68053">
        <ele>219</ele>
        <time>2010-04-24T09:27:58Z</time>
      </trkpt>
      <trkpt lat="46.49638" lon="4.6807">
        <ele>219</ele>
        <time>2010-04-24T09:28:07Z</time>
      </trkpt>
      <trkpt lat="46.49586" lon="4.68088">
        <ele>220</ele>
        <time>2010-04-24T09:28:16Z</time>
      </trkpt>
      <trkpt lat="46.49536" lon="4.68106">
        <ele>220</ele>
        <time>2010-04-24T09:28:25Z</time>
      </trkpt>
      <trkpt lat="46.49485" lon="4.68123">
        <ele>220</ele>
        <time>2010-04-24T09:28:34Z</time>
      </trkpt>
      <trkpt lat="46.49434" lon="4.68141">
        <ele>220</ele>
        <time>2010-04-24T09:28:43Z</time>
      </trkpt>
      <trkpt lat="46.49384" lon="4.68159">
        <ele>221</ele>
        <time>2010-04-24T09:28:52Z</time>
      </trkpt>
      <trkpt lat="46.49334" lon="4.68177">
        <ele>220</ele>
        <time>2010-04-24T09:29:01Z</time>
      </trkpt>
      <trkpt lat="46.49282" lon="4.68197">
        <ele>220</ele>
        <time>2010-04-24T09:29:13Z</time>
      </trkpt>
      <trkpt lat="46.49232" lon="4.68211">
        <ele>220</ele>
        <time>2010-04-24T09:29:24Z</time>
      </trkpt>
      <trkpt lat="46.4918" lon="4.68228">
        <ele>220</ele>
        <time>2010-04-24T09:29:36Z</time>
      </trkpt>
      <trkpt lat="46.49129" lon="4.68246">
        <ele>226</ele>
        <time>2010-04-24T09:32:24Z</time>
      </trkpt>
      <trkpt lat="46.49078" lon="4.68263">
        <ele>225</ele>
        <time>2010-04-24T09:32:35Z</time>
      </trkpt>
      <trkpt lat="46.49026" lon="4.6828">
        <ele>225</ele>
        <time>2010-04-24T09:32:44Z</time>
      </trkpt>
      <trkpt lat="46.48975" lon="4.68297">
        <ele>225</ele>
        <time>2010-04-24T09:32:53Z</time>
      </trkpt>
      <trkpt lat="46.48921" lon="4.68312">
        <ele>225</ele>
        <time>2010-04-24T09:33:03Z</time>
      </trkpt>
      <trkpt lat="46.4887" lon="4.68328">
        <ele>224</ele>
        <time>2010-04-24T09:33:12Z</time>
      </trkpt>
      <trkpt lat="46.48814" lon="4.68339">
        <ele>224</ele>
        <time>2010-04-24T09:33:22Z</time>
      </trkpt>
      <trkpt lat="46.48762" lon="4.68342">
        <ele>225</ele>
        <time>2010-04-24T09:33:31Z</time>
      </trkpt>
      <trkpt lat="46.48709" lon="4.68338">
        <ele>226</ele>
        <time>2010-04-24T09:33:40Z</time>
      </trkpt>
      <trkpt lat="46.48655" lon="4.68329">
        <ele>228</ele>
        <time>2010-04-24T09:33:49Z</time>
      </trkpt>
      <trkpt lat="46.48602" lon="4.68314">
        <ele>231</ele>
        <time>2010-04-24T09:33:58Z</time>
      </trkpt>
      <trkpt lat="46.48549" lon="4.68294">
        <ele>234</ele>
        <time>2010-04-24T09:34:07Z</time>
      </trkpt>
      <trkpt lat="46.48498" lon="4.68273">
        <ele>236</ele>
        <time>2010-04-24T09:34:16Z</time>
      </trkpt>
      <trkpt lat="46.48446" lon="4.68254">
        <ele>241</ele>
        <time>2010-04-24T09:34:26Z</time>
      </trkpt>
      <trkpt lat="46.48394" lon="4.68236">
        <ele>239</ele>
        <time>2010-04-24T09:34:35Z</time>
      </trkpt>
      <trkpt lat="46.48342" lon="4.68217">
        <ele>235</ele>
        <time>2010-04-24T09:34:44Z</time>
      </trkpt>
      <trkpt lat="46.48289" lon="4.68198">
        <ele>231</ele>
        <time>2010-04-24T09:34:53Z</time>
      </trkpt>
      <trkpt lat="46.48238" lon="4.68178">
        <ele>231</ele>
        <time>2010-04-24T09:35:02Z</time>
      </trkpt>
      <trkpt lat="46.48184" lon="4.68158">
        <ele>230</ele>
        <time>2010-04-24T09:35:11Z</time>
      </trkpt>
      <trkpt lat="46.48129" lon="4.68139">
        <ele>227</ele>
        <time>2010-04-24T09:35:20Z</time>
      </trkpt>
      <trkpt lat="46.48078" lon="4.6812">
        <ele>226</ele>
        <time>2010-04-24T09:35:28Z</time>
      </trkpt>
      <trkpt lat="46.48023" lon="4.681">
        <ele>224</ele>
        <time>2010-04-24T09:35:37Z</time>
      </trkpt>
      <trkpt lat="46.47973" lon="4.68082">
        <ele>223</ele>
        <time>2010-04-24T09:35:45Z</time>
      </trkpt>
      <trkpt lat="46.47922" lon="4.68063">
        <ele>223</ele>
        <time>2010-04-24T09:35:53Z</time>
      </trkpt>
      <trkpt lat="46.47871" lon="4.68044">
        <ele>222</ele>
        <time>2010-04-24T09:36:01Z</time>
      </trkpt>
      <trkpt lat="46.47816" lon="4.68024">
        <ele>222</ele>
        <time>2010-04-24T09:36:10Z</time>
      </trkpt>
      <trkpt lat="46.47766" lon="4.68005">
        <ele>222</ele>
        <time>2010-04-24T09:36:18Z</time>
      </trkpt>
      <trkpt lat="46.4771" lon="4.67985">
        <ele>220</ele>
        <time>2010-04-24T09:36:27Z</time>
      </trkpt>
      <trkpt lat="46.47654" lon="4.67965">
        <ele>219</ele>
        <time>2010-04-24T09:36:36Z</time>
      </trkpt>
      <trkpt lat="46.47599" lon="4.67945">
        <ele>219</ele>
        <time>2010-04-24T09:36:45Z</time>
      </trkpt>
      <trkpt lat="46.47543" lon="4.67928">
        <ele>220</ele>
        <time>2010-04-24T09:36:54Z</time>
      </trkpt>
      <trkpt lat="46.47489" lon="4.67912">
        <ele>220</ele>
        <time>2010-04-24T09:37:03Z</time>
      </trkpt>
      <trkpt lat="46.47435" lon="4.67898">
        <ele>221</ele>
        <time>2010-04-24T09:37:12Z</time>
      </trkpt>
      <trkpt lat="46.47381" lon="4.67882">
        <ele>224</ele>
        <time>2010-04-24T09:37:21Z</time>
      </trkpt>
      <trkpt lat="46.47327" lon="4.67869">
        <ele>226</ele>
        <time>2010-04-24T09:37:30Z</time>
      </trkpt>
      <trkpt lat="46.47275" lon="4.67854">
        <ele>228</ele>
        <time>2010-04-24T09:37:39Z</time>
      </trkpt>
      <trkpt lat="46.47221" lon="4.67839">
        <ele>229</ele>
        <time>2010-04-24T09:37:49Z</time>
      </trkpt>
      <trkpt lat="46.47166" lon="4.67825">
        <ele>229</ele>
        <time>2010-04-24T09:37:59Z</time>
      </trkpt>
      <trkpt lat="46.47112" lon="4.67807">
        <ele>230</ele>
        <time>2010-04-24T09:38:09Z</time>
      </trkpt>
      <trkpt lat="46.47057" lon="4.67792">
        <ele>231</ele>
        <time>2010-04-24T09:38:19Z</time>
      </trkpt>
      <trkpt lat="46.47006" lon="4.67778">
        <ele>231</ele>
        <time>2010-04-24T09:38:28Z</time>
      </trkpt>
      <trkpt lat="46.46954" lon="4.67765">
        <ele>232</ele>
        <time>2010-04-24T09:38:37Z</time>
      </trkpt>
      <trkpt lat="46.46904" lon="4.67751">
        <ele>231</ele>
        <time>2010-04-24T09:38:46Z</time>
      </trkpt>
      <trkpt lat="46.46854" lon="4.67737">
        <ele>231</ele>
        <time>2010-04-24T09:38:55Z</time>
      </trkpt>
      <trkpt lat="46.46803" lon="4.67724">
        <ele>231</ele>
        <time>2010-04-24T09:39:04Z</time>
      </trkpt>
      <trkpt lat="46.46751" lon="4.6771">
        <ele>233</ele>
        <time>2010-04-24T09:39:13Z</time>
      </trkpt>
      <trkpt lat="46.46701" lon="4.67697">
        <ele>234</ele>
        <time>2010-04-24T09:39:22Z</time>
      </trkpt>
      <trkpt lat="46.46649" lon="4.67683">
        <ele>234</ele>
        <time>2010-04-24T09:39:32Z</time>
      </trkpt>
      <trkpt lat="46.46597" lon="4.67667">
        <ele>232</ele>
        <time>2010-04-24T09:39:46Z</time>
      </trkpt>
      <trkpt lat="46.46546" lon="4.67655">
        <ele>232</ele>
        <time>2010-04-24T09:39:56Z</time>
      </trkpt>
      <trkpt lat="46.46492" lon="4.67642">
        <ele>231</ele>
        <time>2010-04-24T09:40:06Z</time>
      </trkpt>
      <trkpt lat="46.46441" lon="4.6763">
        <ele>231</ele>
        <time>2010-04-24T09:40:19Z</time>
      </trkpt>
      <trkpt lat="46.46386" lon="4.67619">
        <ele>230</ele>
        <time>2010-04-24T09:40:29Z</time>
      </trkpt>
      <trkpt lat="46.46334" lon="4.67609">
        <ele>230</ele>
        <time>2010-04-24T09:40:38Z</time>
      </trkpt>
      <trkpt lat="46.46281" lon="4.67599">
        <ele>230</ele>
        <time>2010-04-24T09:40:47Z</time>
      </trkpt>
      <trkpt lat="46.46229" lon="4.67589">
        <ele>231</ele>
        <time>2010-04-24T09:40:56Z</time>
      </trkpt>
      <trkpt lat="46.46176" lon="4.67578">
        <ele>231</ele>
        <time>2010-04-24T09:41:05Z</time>
      </trkpt>
      <trkpt lat="46.46123" lon="4.67568">
        <ele>231</ele>
        <time>2010-04-24T09:41:14Z</time>
      </trkpt>
      <trkpt lat="46.46071" lon="4.67558">
        <ele>232</ele>
        <time>2010-04-24T09:41:23Z</time>
      </trkpt>
      <trkpt lat="46.4602" lon="4.67549">
        <ele>233</ele>
        <time>2010-04-24T09:41:32Z</time>
      </trkpt>
      <trkpt lat="46.4597" lon="4.67541">
        <ele>232</ele>
        <time>2010-04-24T09:41:41Z</time>
      </trkpt>
      <trkpt lat="46.45914" lon="4.67531">
        <ele>231</ele>
        <time>2010-04-24T09:41:51Z</time>
      </trkpt>
      <trkpt lat="46.45858" lon="4.67522">
        <ele>230</ele>
        <time>2010-04-24T09:42:01Z</time>
      </trkpt>
      <trkpt lat="46.45805" lon="4.67511">
        <ele>231</ele>
        <time>2010-04-24T09:42:11Z</time>
      </trkpt>
      <trkpt lat="46.45754" lon="4.675">
        <ele>232</ele>
        <time>2010-04-24T09:42:20Z</time>
      </trkpt>
      <trkpt lat="46.45702" lon="4.6749">
        <ele>233</ele>
        <time>2010-04-24T09:42:29Z</time>
      </trkpt>
      <trkpt lat="46.4565" lon="4.6748">
        <ele>235</ele>
        <time>2010-04-24T09:42:38Z</time>
      </trkpt>
      <trkpt lat="46.45597" lon="4.67472">
        <ele>236</ele>
        <time>2010-04-24T09:42:47Z</time>
      </trkpt>
      <trkpt lat="46.45546" lon="4.6747">
        <ele>237</ele>
        <time>2010-04-24T09:42:57Z</time>
      </trkpt>
      <trkpt lat="46.45495" lon="4.67468">
        <ele>238</ele>
        <time>2010-04-24T09:43:08Z</time>
      </trkpt>
      <trkpt lat="46.45442" lon="4.67466">
        <ele>238</ele>
        <time>2010-04-24T09:43:19Z</time>
      </trkpt>
      <trkpt lat="46.45387" lon="4.67466">
        <ele>239</ele>
        <time>2010-04-24T09:43:30Z</time>
      </trkpt>
      <trkpt lat="46.45335" lon="4.67463">
        <ele>237</ele>
        <time>2010-04-24T09:43:40Z</time>
      </trkpt>
      <trkpt lat="46.45282" lon="4.67451">
        <ele>235</ele>
        <time>2010-04-24T09:43:50Z</time>
      </trkpt>
      <trkpt lat="46.45228" lon="4.67432">
        <ele>240</ele>
        <time>2010-04-24T09:44:00Z</time>
      </trkpt>
      <trkpt lat="46.45178" lon="4.67415">
        <ele>245</ele>
        <time>2010-04-24T09:44:09Z</time>
      </trkpt>
      <trkpt lat="46.45124" lon="4.67396">
        <ele>248</ele>
        <time>2010-04-24T09:44:19Z</time>
      </trkpt>
      <trkpt lat="46.45075" lon="4.67381">
        <ele>248</ele>
        <time>2010-04-24T09:44:28Z</time>
      </trkpt>
      <trkpt lat="46.45023" lon="4.67356">
        <ele>246</ele>
        <time>2010-04-24T09:44:38Z</time>
      </trkpt>
      <trkpt lat="46.44944" lon="4.67291">
        <ele>245</ele>
        <time>2010-04-24T09:44:54Z</time>
      </trkpt>
      <trkpt lat="46.4489" lon="4.67275">
        <ele>245</ele>
        <time>2010-04-24T09:45:04Z</time>
      </trkpt>
      <trkpt lat="46.44833" lon="4.67271">
        <ele>245</ele>
        <time>2010-04-24T09:45:13Z</time>
      </trkpt>
      <trkpt lat="46.44783" lon="4.67252">
        <ele>245</ele>
        <time>2010-04-24T09:45:22Z</time>
      </trkpt>
      <trkpt lat="46.44733" lon="4.67225">
        <ele>248</ele>
        <time>2010-04-24T09:45:32Z</time>
      </trkpt>
      <trkpt lat="46.4468" lon="4.67198">
        <ele>252</ele>
        <time>2010-04-24T09:45:42Z</time>
      </trkpt>
      <trkpt lat="46.44632" lon="4.67172">
        <ele>252</ele>
        <time>2010-04-24T09:45:51Z</time>
      </trkpt>
      <trkpt lat="46.4458" lon="4.67149">
        <ele>250</ele>
        <time>2010-04-24T09:46:01Z</time>
      </trkpt>
      <trkpt lat="46.44526" lon="4.67132">
        <ele>248</ele>
        <time>2010-04-24T09:46:11Z</time>
      </trkpt>
      <trkpt lat="46.44472" lon="4.67122">
        <ele>246</ele>
        <time>2010-04-24T09:46:21Z</time>
      </trkpt>
      <trkpt lat="46.44419" lon="4.67124">
        <ele>244</ele>
        <time>2010-04-24T09:46:31Z</time>
      </trkpt>
      <trkpt lat="46.44367" lon="4.67133">
        <ele>244</ele>
        <time>2010-04-24T09:46:41Z</time>
      </trkpt>
      <trkpt lat="46.44317" lon="4.67147">
        <ele>244</ele>
        <time>2010-04-24T09:46:50Z</time>
      </trkpt>
      <trkpt lat="46.44262" lon="4.67161">
        <ele>245</ele>
        <time>2010-04-24T09:47:00Z</time>
      </trkpt>
      <trkpt lat="46.44208" lon="4.67175">
        <ele>245</ele>
        <time>2010-04-24T09:47:10Z</time>
      </trkpt>
      <trkpt lat="46.44154" lon="4.67188">
        <ele>246</ele>
        <time>2010-04-24T09:47:20Z</time>
      </trkpt>
      <trkpt lat="46.441" lon="4.67202">
        <ele>246</ele>
        <time>2010-04-24T09:47:30Z</time>
      </trkpt>
      <trkpt lat="46.44051" lon="4.67214">
        <ele>245</ele>
        <time>2010-04-24T09:47:39Z</time>
      </trkpt>
      <trkpt lat="46.43995" lon="4.67222">
        <ele>245</ele>
        <time>2010-04-24T09:47:49Z</time>
      </trkpt>
      <trkpt lat="46.43942" lon="4.67227">
        <ele>245</ele>
        <time>2010-04-24T09:47:58Z</time>
      </trkpt>
      <trkpt lat="46.4389" lon="4.67231">
        <ele>246</ele>
        <time>2010-04-24T09:48:07Z</time>
      </trkpt>
      <trkpt lat="46.43839" lon="4.67233">
        <ele>246</ele>
        <time>2010-04-24T09:48:21Z</time>
      </trkpt>
      <trkpt lat="46.43785" lon="4.67238">
        <ele>245</ele>
        <time>2010-04-24T09:48:32Z</time>
      </trkpt>
      <trkpt lat="46.43731" lon="4.67243">
        <ele>246</ele>
        <time>2010-04-24T09:48:42Z</time>
      </trkpt>
      <trkpt lat="46.43679" lon="4.67246">
        <ele>246</ele>
        <time>2010-04-24T09:48:51Z</time>
      </trkpt>
      <trkpt lat="46.43626" lon="4.67249">
        <ele>245</ele>
        <time>2010-04-24T09:49:00Z</time>
      </trkpt>
      <trkpt lat="46.43573" lon="4.67252">
        <ele>246</ele>
        <time>2010-04-24T09:49:10Z</time>
      </trkpt>
      <trkpt lat="46.43521" lon="4.67253">
        <ele>246</ele>
        <time>2010-04-24T09:49:25Z</time>
      </trkpt>
      <trkpt lat="46.43472" lon="4.67255">
        <ele>247</ele>
        <time>2010-04-24T09:49:42Z</time>
      </trkpt>
      <trkpt lat="46.43423" lon="4.67248">
        <ele>248</ele>
        <time>2010-04-24T09:49:52Z</time>
      </trkpt>
      <trkpt lat="46.43369" lon="4.67233">
        <ele>248</ele>
        <time>2010-04-24T09:50:01Z</time>
      </trkpt>
      <trkpt lat="46.43315" lon="4.67213">
        <ele>249</ele>
        <time>2010-04-24T09:50:10Z</time>
      </trkpt>
      <trkpt lat="46.43263" lon="4.67189">
        <ele>250</ele>
        <time>2010-04-24T09:50:20Z</time>
      </trkpt>
      <trkpt lat="46.43214" lon="4.67162">
        <ele>253</ele>
        <time>2010-04-24T09:50:29Z</time>
      </trkpt>
      <trkpt lat="46.43165" lon="4.67127">
        <ele>254</ele>
        <time>2010-04-24T09:50:39Z</time>
      </trkpt>
      <trkpt lat="46.4312" lon="4.67088">
        <ele>255</ele>
        <time>2010-04-24T09:50:48Z</time>
      </trkpt>
      <trkpt lat="46.43075" lon="4.67045">
        <ele>255</ele>
        <time>2010-04-24T09:50:57Z</time>
      </trkpt>
      <trkpt lat="46.43031" lon="4.67004">
        <ele>253</ele>
        <time>2010-04-24T09:51:05Z</time>
      </trkpt>
      <trkpt lat="46.42985" lon="4.66961">
        <ele>252</ele>
        <time>2010-04-24T09:51:14Z</time>
      </trkpt>
      <trkpt lat="46.4294" lon="4.66919">
        <ele>252</ele>
        <time>2010-04-24T09:51:23Z</time>
      </trkpt>
      <trkpt lat="46.42895" lon="4.66878">
        <ele>251</ele>
        <time>2010-04-24T09:51:32Z</time>
      </trkpt>
      <trkpt lat="46.42842" lon="4.66832">
        <ele>252</ele>
        <time>2010-04-24T12:07:23Z</time>
      </trkpt>
      <trkpt lat="46.42799" lon="4.66793">
        <ele>250</ele>
        <time>2010-04-24T12:07:34Z</time>
      </trkpt>
      <trkpt lat="46.4275" lon="4.66761">
        <ele>249</ele>
        <time>2010-04-24T12:07:45Z</time>
      </trkpt>
      <trkpt lat="46.427" lon="4.66732">
        <ele>248</ele>
        <time>2010-04-24T12:07:55Z</time>
      </trkpt>
      <trkpt lat="46.42651" lon="4.66703">
        <ele>247</ele>
        <time>2010-04-24T12:08:05Z</time>
      </trkpt>
      <trkpt lat="46.42603" lon="4.66676">
        <ele>246</ele>
        <time>2010-04-24T12:08:15Z</time>
      </trkpt>
      <trkpt lat="46.42554" lon="4.66649">
        <ele>245</ele>
        <time>2010-04-24T12:08:25Z</time>
      </trkpt>
      <trkpt lat="46.42503" lon="4.66622">
        <ele>245</ele>
        <time>2010-04-24T12:08:36Z</time>
      </trkpt>
      <trkpt lat="46.42456" lon="4.66594">
        <ele>245</ele>
        <time>2010-04-24T12:09:07Z</time>
      </trkpt>
      <trkpt lat="46.4241" lon="4.66573">
        <ele>244</ele>
        <time>2010-04-24T12:09:24Z</time>
      </trkpt>
      <trkpt lat="46.42371" lon="4.66617">
        <ele>244</ele>
        <time>2010-04-24T12:09:42Z</time>
      </trkpt>
      <trkpt lat="46.42325" lon="4.66613">
        <ele>244</ele>
        <time>2010-04-24T12:10:01Z</time>
      </trkpt>
      <trkpt lat="46.42278" lon="4.66573">
        <ele>245</ele>
        <time>2010-04-24T12:10:13Z</time>
      </trkpt>
      <trkpt lat="46.42233" lon="4.66528">
        <ele>245</ele>
        <time>2010-04-24T12:10:23Z</time>
      </trkpt>
      <trkpt lat="46.42188" lon="4.66486">
        <ele>246</ele>
        <time>2010-04-24T12:10:32Z</time>
      </trkpt>
      <trkpt lat="46.4214" lon="4.66455">
        <ele>246</ele>
        <time>2010-04-24T12:10:41Z</time>
      </trkpt>
      <trkpt lat="46.42093" lon="4.66422">
        <ele>246</ele>
        <time>2010-04-24T12:10:50Z</time>
      </trkpt>
      <trkpt lat="46.42046" lon="4.66392">
        <ele>246</ele>
        <time>2010-04-24T12:10:59Z</time>
      </trkpt>
      <trkpt lat="46.41994" lon="4.66363">
        <ele>246</ele>
        <time>2010-04-24T12:11:10Z</time>
      </trkpt>
      <trkpt lat="46.41944" lon="4.66358">
        <ele>248</ele>
        <time>2010-04-24T12:11:23Z</time>
      </trkpt>
      <trkpt lat="46.41898" lon="4.66386">
        <ele>254</ele>
        <time>2010-04-24T12:11:43Z</time>
      </trkpt>
      <trkpt lat="46.41867" lon="4.6644">
        <ele>259</ele>
        <time>2010-04-24T12:12:04Z</time>
      </trkpt>
      <trkpt lat="46.41837" lon="4.66497">
        <ele>260</ele>
        <time>2010-04-24T12:12:22Z</time>
      </trkpt>
      <trkpt lat="46.41811" lon="4.66441">
        <ele>258</ele>
        <time>2010-04-24T12:12:42Z</time>
      </trkpt>
      <trkpt lat="46.41774" lon="4.66386">
        <ele>253</ele>
        <time>2010-04-24T12:12:49Z</time>
      </trkpt>
      <trkpt lat="46.41726" lon="4.6634">
        <ele>248</ele>
        <time>2010-04-24T12:12:56Z</time>
      </trkpt>
      <trkpt lat="46.4168" lon="4.66303">
        <ele>247</ele>
        <time>2010-04-24T12:13:09Z</time>
      </trkpt>
      <trkpt lat="46.41638" lon="4.6627">
        <ele>246</ele>
        <time>2010-04-24T12:13:24Z</time>
      </trkpt>
      <trkpt lat="46.4159" lon="4.66232">
        <ele>246</ele>
        <time>2010-04-24T12:13:34Z</time>
      </trkpt>
      <trkpt lat="46.41543" lon="4.66195">
        <ele>247</ele>
        <time>2010-04-24T12:13:44Z</time>
      </trkpt>
      <trkpt lat="46.41495" lon="4.6616">
        <ele>249</ele>
        <time>2010-04-24T12:13:55Z</time>
      </trkpt>
      <trkpt lat="46.41447" lon="4.6613">
        <ele>252</ele>
        <time>2010-04-24T12:14:06Z</time>
      </trkpt>
      <trkpt lat="46.41398" lon="4.66102">
        <ele>253</ele>
        <time>2010-04-24T12:14:16Z</time>
      </trkpt>
      <trkpt lat="46.41351" lon="4.66075">
        <ele>251</ele>
        <time>2010-04-24T12:14:24Z</time>
      </trkpt>
      <trkpt lat="46.41297" lon="4.66045">
        <ele>248</ele>
        <time>2010-04-24T12:14:31Z</time>
      </trkpt>
      <trkpt lat="46.41246" lon="4.66015">
        <ele>248</ele>
        <time>2010-04-24T12:14:38Z</time>
      </trkpt>
      <trkpt lat="46.41196" lon="4.65987">
        <ele>250</ele>
        <time>2010-04-24T12:14:46Z</time>
      </trkpt>
      <trkpt lat="46.41144" lon="4.65959">
        <ele>252</ele>
        <time>2010-04-24T12:14:56Z</time>
      </trkpt>
      <trkpt lat="46.41096" lon="4.65979">
        <ele>254</ele>
        <time>2010-04-24T12:15:08Z</time>
      </trkpt>
      <trkpt lat="46.41047" lon="4.65991">
        <ele>256</ele>
        <time>2010-04-24T12:15:25Z</time>
      </trkpt>
      <trkpt lat="46.40997" lon="4.65973">
        <ele>257</ele>
        <time>2010-04-24T12:15:38Z</time>
      </trkpt>
      <trkpt lat="46.40947" lon="4.65962">
        <ele>263</ele>
        <time>2010-04-24T12:15:58Z</time>
      </trkpt>
      <trkpt lat="46.40897" lon="4.6595">
        <ele>265</ele>
        <time>2010-04-24T12:16:15Z</time>
      </trkpt>
      <trkpt lat="46.40844" lon="4.65928">
        <ele>262</ele>
        <time>2010-04-24T12:16:26Z</time>
      </trkpt>
      <trkpt lat="46.40798" lon="4.65896">
        <ele>260</ele>
        <time>2010-04-24T12:16:34Z</time>
      </trkpt>
      <trkpt lat="46.40756" lon="4.65849">
        <ele>262</ele>
        <time>2010-04-24T12:16:45Z</time>
      </trkpt>
      <trkpt lat="46.40707" lon="4.65828">
        <ele>264</ele>
        <time>2010-04-24T12:16:57Z</time>
      </trkpt>
      <trkpt lat="46.40658" lon="4.65817">
        <ele>267</ele>
        <time>2010-04-24T12:17:11Z</time>
      </trkpt>
      <trkpt lat="46.40608" lon="4.65808">
        <ele>273</ele>
        <time>2010-04-24T12:17:30Z</time>
      </trkpt>
      <trkpt lat="46.40567" lon="4.65747">
        <ele>271</ele>
        <time>2010-04-24T12:17:45Z</time>
      </trkpt>
      <trkpt lat="46.40524" lon="4.65701">
        <ele>276</ele>
        <time>2010-04-24T12:17:59Z</time>
      </trkpt>
      <trkpt lat="46.40473" lon="4.65679">
        <ele>275</ele>
        <time>2010-04-24T12:18:12Z</time>
      </trkpt>
      <trkpt lat="46.40424" lon="4.65665">
        <ele>274</ele>
        <time>2010-04-24T12:18:24Z</time>
      </trkpt>
      <trkpt lat="46.40375" lon="4.65648">
        <ele>274</ele>
        <time>2010-04-24T12:18:36Z</time>
      </trkpt>
      <trkpt lat="46.40326" lon="4.65629">
        <ele>277</ele>
        <time>2010-04-24T12:18:49Z</time>
      </trkpt>
      <trkpt lat="46.40282" lon="4.65588">
        <ele>279</ele>
        <time>2010-04-24T12:19:02Z</time>
      </trkpt>
      <trkpt lat="46.40237" lon="4.6555">
        <ele>279</ele>
        <time>2010-04-24T12:19:15Z</time>
      </trkpt>
      <trkpt lat="46.40192" lon="4.65508">
        <ele>279</ele>
        <time>2010-04-24T12:19:24Z</time>
      </trkpt>
      <trkpt lat="46.40144" lon="4.65479">
        <ele>278</ele>
        <time>2010-04-24T12:19:32Z</time>
      </trkpt>
      <trkpt lat="46.40091" lon="4.65462">
        <ele>279</ele>
        <time>2010-04-24T12:19:42Z</time>
      </trkpt>
      <trkpt lat="46.40037" lon="4.65455">
        <ele>280</ele>
        <time>2010-04-24T12:19:53Z</time>
      </trkpt>
      <trkpt lat="46.39991" lon="4.65495">
        <ele>281</ele>
        <time>2010-04-24T12:20:04Z</time>
      </trkpt>
      <trkpt lat="46.39947" lon="4.65457">
        <ele>282</ele>
        <time>2010-04-24T12:20:15Z</time>
      </trkpt>
      <trkpt lat="46.39894" lon="4.65442">
        <ele>284</ele>
        <time>2010-04-24T12:20:25Z</time>
      </trkpt>
      <trkpt lat="46.39841" lon="4.65446">
        <ele>289</ele>
        <time>2010-04-24T12:20:37Z</time>
      </trkpt>
      <trkpt lat="46.39788" lon="4.65463">
        <ele>291</ele>
        <time>2010-04-24T12:20:48Z</time>
      </trkpt>
      <trkpt lat="46.39737" lon="4.65491">
        <ele>292</ele>
        <time>2010-04-24T12:20:59Z</time>
      </trkpt>
      <trkpt lat="46.39692" lon="4.65524">
        <ele>292</ele>
        <time>2010-04-24T12:21:08Z</time>
      </trkpt>
      <trkpt lat="46.39649" lon="4.65569">
        <ele>292</ele>
        <time>2010-04-24T12:21:18Z</time>
      </trkpt>
      <trkpt lat="46.39608" lon="4.65611">
        <ele>293</ele>
        <time>2010-04-24T12:21:28Z</time>
      </trkpt>
      <trkpt lat="46.39568" lon="4.65653">
        <ele>293</ele>
        <time>2010-04-24T12:21:38Z</time>
      </trkpt>
      <trkpt lat="46.39571" lon="4.65585">
        <ele>286</ele>
        <time>2010-04-24T12:22:05Z</time>
      </trkpt>
      <trkpt lat="46.39524" lon="4.65587">
        <ele>280</ele>
        <time>2010-04-24T12:22:20Z</time>
      </trkpt>
      <trkpt lat="46.39478" lon="4.65567">
        <ele>283</ele>
        <time>2010-04-24T12:23:44Z</time>
      </trkpt>
      <trkpt lat="46.39427" lon="4.65563">
        <ele>293</ele>
        <time>2010-04-24T13:28:07Z</time>
      </trkpt>
      <trkpt lat="46.3939" lon="4.65609">
        <ele>295</ele>
        <time>2010-04-24T13:28:25Z</time>
      </trkpt>
      <trkpt lat="46.39353" lon="4.65658">
        <ele>296</ele>
        <time>2010-04-24T13:28:43Z</time>
      </trkpt>
      <trkpt lat="46.39322" lon="4.65717">
        <ele>297</ele>
        <time>2010-04-24T13:28:59Z</time>
      </trkpt>
      <trkpt lat="46.39287" lon="4.65769">
        <ele>297</ele>
        <time>2010-04-24T13:29:09Z</time>
      </trkpt>
      <trkpt lat="46.39251" lon="4.65823">
        <ele>300</ele>
        <time>2010-04-24T13:29:20Z</time>
      </trkpt>
      <trkpt lat="46.39211" lon="4.65864">
        <ele>306</ele>
        <time>2010-04-24T13:29:36Z</time>
      </trkpt>
      <trkpt lat="46.39179" lon="4.6592">
        <ele>309</ele>
        <time>2010-04-24T13:29:54Z</time>
      </trkpt>
      <trkpt lat="46.39151" lon="4.65977">
        <ele>316</ele>
        <time>2010-04-24T13:30:21Z</time>
      </trkpt>
      <trkpt lat="46.39111" lon="4.66015">
        <ele>323</ele>
        <time>2010-04-24T13:30:43Z</time>
      </trkpt>
      <trkpt lat="46.39071" lon="4.66054">
        <ele>329</ele>
        <time>2010-04-24T13:31:06Z</time>
      </trkpt>
      <trkpt lat="46.39039" lon="4.66109">
        <ele>333</ele>
        <time>2010-04-24T13:31:23Z</time>
      </trkpt>
      <trkpt lat="46.39018" lon="4.66174">
        <ele>330</ele>
        <time>2010-04-24T13:31:41Z</time>
      </trkpt>
      <trkpt lat="46.39" lon="4.66239">
        <ele>329</ele>
        <time>2010-04-24T13:31:53Z</time>
      </trkpt>
      <trkpt lat="46.39047" lon="4.66242">
        <ele>322</ele>
        <time>2010-04-24T13:32:34Z</time>
      </trkpt>
      <trkpt lat="46.39059" lon="4.66299">
        <ele>310</ele>
        <time>2010-04-24T13:32:54Z</time>
      </trkpt>
      <trkpt lat="46.39027" lon="4.66354">
        <ele>315</ele>
        <time>2010-04-24T13:33:06Z</time>
      </trkpt>
      <trkpt lat="46.39" lon="4.66417">
        <ele>327</ele>
        <time>2010-04-24T13:33:23Z</time>
      </trkpt>
      <trkpt lat="46.38408" lon="4.68371">
        <ele>321</ele>
        <time>2010-04-24T13:38:58Z</time>
      </trkpt>
      <trkpt lat="46.38393" lon="4.68436">
        <ele>333</ele>
        <time>2010-04-24T13:43:35Z</time>
      </trkpt>
      <trkpt lat="46.38358" lon="4.68492">
        <ele>331</ele>
        <time>2010-04-24T13:43:48Z</time>
      </trkpt>
      <trkpt lat="46.38322" lon="4.68544">
        <ele>327</ele>
        <time>2010-04-24T13:43:57Z</time>
      </trkpt>
      <trkpt lat="46.38284" lon="4.686">
        <ele>322</ele>
        <time>2010-04-24T13:44:10Z</time>
      </trkpt>
      <trkpt lat="46.38256" lon="4.68659">
        <ele>319</ele>
        <time>2010-04-24T13:44:28Z</time>
      </trkpt>
      <trkpt lat="46.38218" lon="4.68695">
        <ele>318</ele>
        <time>2010-04-24T13:46:49Z</time>
      </trkpt>
      <trkpt lat="46.38177" lon="4.68748">
        <ele>315</ele>
        <time>2010-04-24T13:46:59Z</time>
      </trkpt>
      <trkpt lat="46.38131" lon="4.68792">
        <ele>313</ele>
        <time>2010-04-24T13:47:07Z</time>
      </trkpt>
      <trkpt lat="46.38077" lon="4.68828">
        <ele>312</ele>
        <time>2010-04-24T13:47:15Z</time>
      </trkpt>
      <trkpt lat="46.38025" lon="4.68851">
        <ele>312</ele>
        <time>2010-04-24T13:47:22Z</time>
      </trkpt>
      <trkpt lat="46.37972" lon="4.68863">
        <ele>313</ele>
        <time>2010-04-24T13:47:29Z</time>
      </trkpt>
      <trkpt lat="46.37912" lon="4.68865">
        <ele>314</ele>
        <time>2010-04-24T13:47:37Z</time>
      </trkpt>
      <trkpt lat="46.37859" lon="4.68852">
        <ele>317</ele>
        <time>2010-04-24T13:47:44Z</time>
      </trkpt>
      <trkpt lat="46.37805" lon="4.68839">
        <ele>315</ele>
        <time>2010-04-24T13:47:52Z</time>
      </trkpt>
      <trkpt lat="46.37748" lon="4.68843">
        <ele>313</ele>
        <time>2010-04-24T13:47:59Z</time>
      </trkpt>
      <trkpt lat="46.37688" lon="4.68849">
        <ele>310</ele>
        <time>2010-04-24T13:48:06Z</time>
      </trkpt>
      <trkpt lat="46.3763" lon="4.68854">
        <ele>308</ele>
        <time>2010-04-24T13:48:13Z</time>
      </trkpt>
      <trkpt lat="46.37576" lon="4.68863">
        <ele>306</ele>
        <time>2010-04-24T13:48:23Z</time>
      </trkpt>
      <trkpt lat="46.37526" lon="4.68868">
        <ele>305</ele>
        <time>2010-04-24T13:48:32Z</time>
      </trkpt>
      <trkpt lat="46.37471" lon="4.68871">
        <ele>304</ele>
        <time>2010-04-24T13:48:41Z</time>
      </trkpt>
      <trkpt lat="46.37418" lon="4.6888">
        <ele>302</ele>
        <time>2010-04-24T13:48:51Z</time>
      </trkpt>
      <trkpt lat="46.37368" lon="4.68895">
        <ele>301</ele>
        <time>2010-04-24T13:48:59Z</time>
      </trkpt>
      <trkpt lat="46.37317" lon="4.68923">
        <ele>300</ele>
        <time>2010-04-24T13:49:07Z</time>
      </trkpt>
      <trkpt lat="46.37266" lon="4.68963">
        <ele>298</ele>
        <time>2010-04-24T13:49:16Z</time>
      </trkpt>
      <trkpt lat="46.3722" lon="4.69002">
        <ele>296</ele>
        <time>2010-04-24T13:49:23Z</time>
      </trkpt>
      <trkpt lat="46.37169" lon="4.69044">
        <ele>295</ele>
        <time>2010-04-24T13:49:31Z</time>
      </trkpt>
      <trkpt lat="46.37114" lon="4.69074">
        <ele>293</ele>
        <time>2010-04-24T13:49:39Z</time>
      </trkpt>
      <trkpt lat="46.37057" lon="4.69094">
        <ele>290</ele>
        <time>2010-04-24T13:49:47Z</time>
      </trkpt>
      <trkpt lat="46.37003" lon="4.69106">
        <ele>289</ele>
        <time>2010-04-24T13:49:55Z</time>
      </trkpt>
      <trkpt lat="46.36951" lon="4.69123">
        <ele>292</ele>
        <time>2010-04-24T13:50:02Z</time>
      </trkpt>
      <trkpt lat="46.369" lon="4.69146">
        <ele>292</ele>
        <time>2010-04-24T13:50:09Z</time>
      </trkpt>
      <trkpt lat="46.36849" lon="4.69166">
        <ele>289</ele>
        <time>2010-04-24T13:50:16Z</time>
      </trkpt>
      <trkpt lat="46.36791" lon="4.6918">
        <ele>285</ele>
        <time>2010-04-24T13:50:24Z</time>
      </trkpt>
      <trkpt lat="46.36737" lon="4.6919">
        <ele>283</ele>
        <time>2010-04-24T13:50:31Z</time>
      </trkpt>
      <trkpt lat="46.36683" lon="4.69198">
        <ele>282</ele>
        <time>2010-04-24T13:50:38Z</time>
      </trkpt>
      <trkpt lat="46.36628" lon="4.69216">
        <ele>280</ele>
        <time>2010-04-24T13:50:46Z</time>
      </trkpt>
      <trkpt lat="46.36574" lon="4.69244">
        <ele>278</ele>
        <time>2010-04-24T13:50:54Z</time>
      </trkpt>
      <trkpt lat="46.3652" lon="4.69271">
        <ele>277</ele>
        <time>2010-04-24T13:51:02Z</time>
      </trkpt>
      <trkpt lat="46.36467" lon="4.69297">
        <ele>276</ele>
        <time>2010-04-24T13:51:10Z</time>
      </trkpt>
      <trkpt lat="46.36417" lon="4.69299">
        <ele>277</ele>
        <time>2010-04-24T13:51:41Z</time>
      </trkpt>
      <trkpt lat="46.36369" lon="4.69307">
        <ele>280</ele>
        <time>2010-04-24T13:51:58Z</time>
      </trkpt>
      <trkpt lat="46.36317" lon="4.69312">
        <ele>280</ele>
        <time>2010-04-24T13:52:12Z</time>
      </trkpt>
      <trkpt lat="46.36265" lon="4.69321">
        <ele>277</ele>
        <time>2010-04-24T13:52:21Z</time>
      </trkpt>
      <trkpt lat="46.36213" lon="4.69332">
        <ele>277</ele>
        <time>2010-04-24T13:52:30Z</time>
      </trkpt>
      <trkpt lat="46.36158" lon="4.69343">
        <ele>275</ele>
        <time>2010-04-24T13:52:39Z</time>
      </trkpt>
      <trkpt lat="46.36108" lon="4.6936">
        <ele>273</ele>
        <time>2010-04-24T13:52:51Z</time>
      </trkpt>
      <trkpt lat="46.36076" lon="4.69407">
        <ele>269</ele>
        <time>2010-04-24T13:53:28Z</time>
      </trkpt>
      <trkpt lat="46.36031" lon="4.69443">
        <ele>267</ele>
        <time>2010-04-24T13:53:42Z</time>
      </trkpt>
      <trkpt lat="46.35987" lon="4.6948">
        <ele>261</ele>
        <time>2010-04-24T13:53:52Z</time>
      </trkpt>
      <trkpt lat="46.35968" lon="4.69545">
        <ele>258</ele>
        <time>2010-04-24T13:54:06Z</time>
      </trkpt>
      <trkpt lat="46.35944" lon="4.69608">
        <ele>257</ele>
        <time>2010-04-24T13:54:16Z</time>
      </trkpt>
      <trkpt lat="46.35919" lon="4.69671">
        <ele>256</ele>
        <time>2010-04-24T13:54:28Z</time>
      </trkpt>
      <trkpt lat="46.35882" lon="4.69721">
        <ele>257</ele>
        <time>2010-04-24T13:54:39Z</time>
      </trkpt>
      <trkpt lat="46.35844" lon="4.69779">
        <ele>255</ele>
        <time>2010-04-24T13:54:49Z</time>
      </trkpt>
      <trkpt lat="46.35817" lon="4.69842">
        <ele>254</ele>
        <time>2010-04-24T13:54:58Z</time>
      </trkpt>
      <trkpt lat="46.35793" lon="4.69908">
        <ele>254</ele>
        <time>2010-04-24T13:55:11Z</time>
      </trkpt>
      <trkpt lat="46.35748" lon="4.69878">
        <ele>253</ele>
        <time>2010-04-24T13:55:20Z</time>
      </trkpt>
      <trkpt lat="46.35697" lon="4.69855">
        <ele>251</ele>
        <time>2010-04-24T13:55:30Z</time>
      </trkpt>
      <trkpt lat="46.3566" lon="4.69911">
        <ele>255</ele>
        <time>2010-04-24T13:55:39Z</time>
      </trkpt>
      <trkpt lat="46.35619" lon="4.69967">
        <ele>260</ele>
        <time>2010-04-24T13:55:49Z</time>
      </trkpt>
      <trkpt lat="46.35587" lon="4.70027">
        <ele>259</ele>
        <time>2010-04-24T13:56:00Z</time>
      </trkpt>
      <trkpt lat="46.35552" lon="4.7008">
        <ele>255</ele>
        <time>2010-04-24T13:56:15Z</time>
      </trkpt>
      <trkpt lat="46.35512" lon="4.70123">
        <ele>255</ele>
        <time>2010-04-24T13:56:24Z</time>
      </trkpt>
      <trkpt lat="46.35477" lon="4.70179">
        <ele>255</ele>
        <time>2010-04-24T13:56:33Z</time>
      </trkpt>
      <trkpt lat="46.35437" lon="4.70231">
        <ele>254</ele>
        <time>2010-04-24T13:56:42Z</time>
      </trkpt>
      <trkpt lat="46.35394" lon="4.70283">
        <ele>252</ele>
        <time>2010-04-24T13:56:50Z</time>
      </trkpt>
      <trkpt lat="46.35354" lon="4.7035">
        <ele>248</ele>
        <time>2010-04-24T13:56:56Z</time>
      </trkpt>
      <trkpt lat="46.3531" lon="4.70418">
        <ele>244</ele>
        <time>2010-04-24T13:57:02Z</time>
      </trkpt>
      <trkpt lat="46.3527" lon="4.70478">
        <ele>240</ele>
        <time>2010-04-24T13:57:08Z</time>
      </trkpt>
      <trkpt lat="46.3523" lon="4.70539">
        <ele>239</ele>
        <time>2010-04-24T13:57:15Z</time>
      </trkpt>
      <trkpt lat="46.35193" lon="4.70595">
        <ele>238</ele>
        <time>2010-04-24T13:57:22Z</time>
      </trkpt>
      <trkpt lat="46.35156" lon="4.70651">
        <ele>238</ele>
        <time>2010-04-24T13:57:29Z</time>
      </trkpt>
      <trkpt lat="46.3512" lon="4.70708">
        <ele>240</ele>
        <time>2010-04-24T13:57:36Z</time>
      </trkpt>
      <trkpt lat="46.35096" lon="4.70773">
        <ele>239</ele>
        <time>2010-04-24T13:57:52Z</time>
      </trkpt>
      <trkpt lat="46.35074" lon="4.7084">
        <ele>238</ele>
        <time>2010-04-24T13:58:05Z</time>
      </trkpt>
      <trkpt lat="46.3504" lon="4.70893">
        <ele>235</ele>
        <time>2010-04-24T13:58:16Z</time>
      </trkpt>
      <trkpt lat="46.35004" lon="4.70949">
        <ele>237</ele>
        <time>2010-04-24T13:58:25Z</time>
      </trkpt>
      <trkpt lat="46.34967" lon="4.71009">
        <ele>240</ele>
        <time>2010-04-24T13:58:35Z</time>
      </trkpt>
      <trkpt lat="46.34932" lon="4.71064">
        <ele>242</ele>
        <time>2010-04-24T13:58:45Z</time>
      </trkpt>
      <trkpt lat="46.34903" lon="4.71127">
        <ele>245</ele>
        <time>2010-04-24T13:58:58Z</time>
      </trkpt>
      <trkpt lat="46.34873" lon="4.71183">
        <ele>245</ele>
        <time>2010-04-24T13:59:14Z</time>
      </trkpt>
      <trkpt lat="46.34848" lon="4.71248">
        <ele>244</ele>
        <time>2010-04-24T13:59:25Z</time>
      </trkpt>
      <trkpt lat="46.34826" lon="4.71317">
        <ele>240</ele>
        <time>2010-04-24T13:59:36Z</time>
      </trkpt>
      <trkpt lat="46.34799" lon="4.71379">
        <ele>245</ele>
        <time>2010-04-24T13:59:48Z</time>
      </trkpt>
      <trkpt lat="46.34765" lon="4.71433">
        <ele>241</ele>
        <time>2010-04-24T13:59:59Z</time>
      </trkpt>
      <trkpt lat="46.34728" lon="4.71492">
        <ele>242</ele>
        <time>2010-04-24T14:00:09Z</time>
      </trkpt>
      <trkpt lat="46.34692" lon="4.71549">
        <ele>240</ele>
        <time>2010-04-24T14:00:19Z</time>
      </trkpt>
      <trkpt lat="46.34645" lon="4.71575">
        <ele>242</ele>
        <time>2010-04-24T14:00:31Z</time>
      </trkpt>
      <trkpt lat="46.34596" lon="4.71597">
        <ele>243</ele>
        <time>2010-04-24T14:00:47Z</time>
      </trkpt>
      <trkpt lat="46.34549" lon="4.7162">
        <ele>243</ele>
        <time>2010-04-24T14:00:57Z</time>
      </trkpt>
      <trkpt lat="46.34502" lon="4.71643">
        <ele>244</ele>
        <time>2010-04-24T14:01:06Z</time>
      </trkpt>
      <trkpt lat="46.34453" lon="4.71677">
        <ele>243</ele>
        <time>2010-04-24T14:01:14Z</time>
      </trkpt>
      <trkpt lat="46.34404" lon="4.71718">
        <ele>241</ele>
        <time>2010-04-24T14:01:22Z</time>
      </trkpt>
      <trkpt lat="46.34362" lon="4.71766">
        <ele>239</ele>
        <time>2010-04-24T14:01:30Z</time>
      </trkpt>
      <trkpt lat="46.34322" lon="4.71815">
        <ele>236</ele>
        <time>2010-04-24T14:01:37Z</time>
      </trkpt>
      <trkpt lat="46.34279" lon="4.71864">
        <ele>235</ele>
        <time>2010-04-24T14:01:46Z</time>
      </trkpt>
      <trkpt lat="46.34235" lon="4.71914">
        <ele>233</ele>
        <time>2010-04-24T14:01:55Z</time>
      </trkpt>
      <trkpt lat="46.34206" lon="4.71977">
        <ele>231</ele>
        <time>2010-04-24T14:02:07Z</time>
      </trkpt>
      <trkpt lat="46.3423" lon="4.72039">
        <ele>228</ele>
        <time>2010-04-24T14:02:16Z</time>
      </trkpt>
      <trkpt lat="46.34251" lon="4.72113">
        <ele>227</ele>
        <time>2010-04-24T14:02:25Z</time>
      </trkpt>
      <trkpt lat="46.34215" lon="4.72159">
        <ele>226</ele>
        <time>2010-04-24T14:03:07Z</time>
      </trkpt>
      <trkpt lat="46.34166" lon="4.72173">
        <ele>226</ele>
        <time>2010-04-24T14:03:17Z</time>
      </trkpt>
      <trkpt lat="46.34113" lon="4.72188">
        <ele>225</ele>
        <time>2010-04-24T14:03:27Z</time>
      </trkpt>
      <trkpt lat="46.34059" lon="4.72181">
        <ele>227</ele>
        <time>2010-04-24T14:03:37Z</time>
      </trkpt>
      <trkpt lat="46.34008" lon="4.72192">
        <ele>227</ele>
        <time>2010-04-24T14:03:48Z</time>
      </trkpt>
      <trkpt lat="46.33967" lon="4.72236">
        <ele>225</ele>
        <time>2010-04-24T14:03:57Z</time>
      </trkpt>
      <trkpt lat="46.33924" lon="4.72282">
        <ele>220</ele>
        <time>2010-04-24T14:04:07Z</time>
      </trkpt>
      <trkpt lat="46.33881" lon="4.72331">
        <ele>218</ele>
        <time>2010-04-24T14:04:17Z</time>
      </trkpt>
      <trkpt lat="46.33843" lon="4.72386">
        <ele>220</ele>
        <time>2010-04-24T14:04:26Z</time>
      </trkpt>
      <trkpt lat="46.33802" lon="4.72433">
        <ele>221</ele>
        <time>2010-04-24T14:04:35Z</time>
      </trkpt>
      <trkpt lat="46.33759" lon="4.72483">
        <ele>220</ele>
        <time>2010-04-24T14:04:44Z</time>
      </trkpt>
      <trkpt lat="46.33719" lon="4.72537">
        <ele>219</ele>
        <time>2010-04-24T14:04:52Z</time>
      </trkpt>
      <trkpt lat="46.3368" lon="4.72591">
        <ele>219</ele>
        <time>2010-04-24T14:05:00Z</time>
      </trkpt>
      <trkpt lat="46.3364" lon="4.72648">
        <ele>218</ele>
        <time>2010-04-24T14:05:08Z</time>
      </trkpt>
      <trkpt lat="46.33604" lon="4.72707">
        <ele>219</ele>
        <time>2010-04-24T14:05:16Z</time>
      </trkpt>
      <trkpt lat="46.33569" lon="4.72765">
        <ele>220</ele>
        <time>2010-04-24T14:05:24Z</time>
      </trkpt>
      <trkpt lat="46.33533" lon="4.72829">
        <ele>220</ele>
        <time>2010-04-24T14:05:32Z</time>
      </trkpt>
      <trkpt lat="46.33497" lon="4.72889">
        <ele>219</ele>
        <time>2010-04-24T14:05:40Z</time>
      </trkpt>
      <trkpt lat="46.33518" lon="4.72951">
        <ele>219</ele>
        <time>2010-04-24T14:05:55Z</time>
      </trkpt>
      <trkpt lat="46.33502" lon="4.73022">
        <ele>220</ele>
        <time>2010-04-24T14:06:05Z</time>
      </trkpt>
      <trkpt lat="46.33483" lon="4.73091">
        <ele>221</ele>
        <time>2010-04-24T14:06:15Z</time>
      </trkpt>
      <trkpt lat="46.33456" lon="4.73158">
        <ele>220</ele>
        <time>2010-04-24T14:06:26Z</time>
      </trkpt>
      <trkpt lat="46.33447" lon="4.73234">
        <ele>217</ele>
        <time>2010-04-24T14:06:49Z</time>
      </trkpt>
      <trkpt lat="46.33427" lon="4.733">
        <ele>216</ele>
        <time>2010-04-24T14:06:59Z</time>
      </trkpt>
      <trkpt lat="46.33406" lon="4.73369">
        <ele>216</ele>
        <time>2010-04-24T14:07:07Z</time>
      </trkpt>
      <trkpt lat="46.33383" lon="4.73445">
        <ele>215</ele>
        <time>2010-04-24T14:07:16Z</time>
      </trkpt>
      <trkpt lat="46.33361" lon="4.73521">
        <ele>214</ele>
        <time>2010-04-24T14:07:25Z</time>
      </trkpt>
      <trkpt lat="46.33342" lon="4.73594">
        <ele>215</ele>
        <time>2010-04-24T14:07:34Z</time>
      </trkpt>
      <trkpt lat="46.33325" lon="4.73669">
        <ele>215</ele>
        <time>2010-04-24T14:07:43Z</time>
      </trkpt>
      <trkpt lat="46.33308" lon="4.73741">
        <ele>214</ele>
        <time>2010-04-24T14:07:51Z</time>
      </trkpt>
      <trkpt lat="46.33288" lon="4.73817">
        <ele>214</ele>
        <time>2010-04-24T14:07:59Z</time>
      </trkpt>
      <trkpt lat="46.3327" lon="4.73888">
        <ele>214</ele>
        <time>2010-04-24T14:08:07Z</time>
      </trkpt>
      <trkpt lat="46.33251" lon="4.73963">
        <ele>212</ele>
        <time>2010-04-24T14:08:15Z</time>
      </trkpt>
      <trkpt lat="46.33233" lon="4.7404">
        <ele>211</ele>
        <time>2010-04-24T14:08:23Z</time>
      </trkpt>
      <trkpt lat="46.33215" lon="4.74117">
        <ele>211</ele>
        <time>2010-04-24T14:08:31Z</time>
      </trkpt>
      <trkpt lat="46.33197" lon="4.74188">
        <ele>211</ele>
        <time>2010-04-24T14:08:39Z</time>
      </trkpt>
      <trkpt lat="46.33178" lon="4.74266">
        <ele>211</ele>
        <time>2010-04-24T14:08:48Z</time>
      </trkpt>
      <trkpt lat="46.33161" lon="4.74336">
        <ele>212</ele>
        <time>2010-04-24T14:08:57Z</time>
      </trkpt>
      <trkpt lat="46.33126" lon="4.74389">
        <ele>215</ele>
        <time>2010-04-24T14:09:59Z</time>
      </trkpt>
      <trkpt lat="46.3309" lon="4.7444">
        <ele>214</ele>
        <time>2010-04-24T14:10:31Z</time>
      </trkpt>
      <trkpt lat="46.33048" lon="4.7449">
        <ele>214</ele>
        <time>2010-04-24T14:10:41Z</time>
      </trkpt>
      <trkpt lat="46.33004" lon="4.74528">
        <ele>214</ele>
        <time>2010-04-24T14:10:50Z</time>
      </trkpt>
      <trkpt lat="46.32954" lon="4.74557">
        <ele>213</ele>
        <time>2010-04-24T14:10:59Z</time>
      </trkpt>
      <trkpt lat="46.329" lon="4.74575">
        <ele>213</ele>
        <time>2010-04-24T14:11:08Z</time>
      </trkpt>
      <trkpt lat="46.32844" lon="4.7458">
        <ele>213</ele>
        <time>2010-04-24T14:11:17Z</time>
      </trkpt>
      <trkpt lat="46.32789" lon="4.74577">
        <ele>213</ele>
        <time>2010-04-24T14:11:26Z</time>
      </trkpt>
      <trkpt lat="46.32734" lon="4.74573">
        <ele>212</ele>
        <time>2010-04-24T14:11:35Z</time>
      </trkpt>
      <trkpt lat="46.32677" lon="4.74568">
        <ele>212</ele>
        <time>2010-04-24T14:11:44Z</time>
      </trkpt>
      <trkpt lat="46.32624" lon="4.74574">
        <ele>211</ele>
        <time>2010-04-24T14:11:52Z</time>
      </trkpt>
      <trkpt lat="46.32571" lon="4.74593">
        <ele>210</ele>
        <time>2010-04-24T14:12:00Z</time>
      </trkpt>
      <trkpt lat="46.32521" lon="4.74623">
        <ele>209</ele>
        <time>2010-04-24T14:12:08Z</time>
      </trkpt>
      <trkpt lat="46.32474" lon="4.74666">
        <ele>206</ele>
        <time>2010-04-24T14:12:17Z</time>
      </trkpt>
      <trkpt lat="46.32433" lon="4.74719">
        <ele>205</ele>
        <time>2010-04-24T14:12:27Z</time>
      </trkpt>
      <trkpt lat="46.32401" lon="4.74782">
        <ele>206</ele>
        <time>2010-04-24T14:12:39Z</time>
      </trkpt>
      <trkpt lat="46.32376" lon="4.74851">
        <ele>204</ele>
        <time>2010-04-24T14:12:49Z</time>
      </trkpt>
      <trkpt lat="46.3236" lon="4.74923">
        <ele>202</ele>
        <time>2010-04-24T14:12:58Z</time>
      </trkpt>
      <trkpt lat="46.32346" lon="4.74997">
        <ele>202</ele>
        <time>2010-04-24T14:13:07Z</time>
      </trkpt>
      <trkpt lat="46.32328" lon="4.7507">
        <ele>202</ele>
        <time>2010-04-24T14:13:16Z</time>
      </trkpt>
      <trkpt lat="46.32307" lon="4.75141">
        <ele>204</ele>
        <time>2010-04-24T14:13:25Z</time>
      </trkpt>
      <trkpt lat="46.32293" lon="4.75211">
        <ele>204</ele>
        <time>2010-04-24T14:13:47Z</time>
      </trkpt>
      <trkpt lat="46.32268" lon="4.75272">
        <ele>205</ele>
        <time>2010-04-24T14:13:59Z</time>
      </trkpt>
      <trkpt lat="46.32226" lon="4.75311">
        <ele>205</ele>
        <time>2010-04-24T14:14:10Z</time>
      </trkpt>
      <trkpt lat="46.32194" lon="4.75367">
        <ele>206</ele>
        <time>2010-04-24T14:16:10Z</time>
      </trkpt>
      <trkpt lat="46.32163" lon="4.75427">
        <ele>206</ele>
        <time>2010-04-24T14:16:21Z</time>
      </trkpt>
      <trkpt lat="46.3214" lon="4.75493">
        <ele>206</ele>
        <time>2010-04-24T14:16:32Z</time>
      </trkpt>
      <trkpt lat="46.32108" lon="4.75555">
        <ele>204</ele>
        <time>2010-04-24T14:16:43Z</time>
      </trkpt>
      <trkpt lat="46.32068" lon="4.75608">
        <ele>202</ele>
        <time>2010-04-24T14:16:53Z</time>
      </trkpt>
      <trkpt lat="46.32028" lon="4.75661">
        <ele>202</ele>
        <time>2010-04-24T14:17:02Z</time>
      </trkpt>
      <trkpt lat="46.3199" lon="4.75711">
        <ele>201</ele>
        <time>2010-04-24T14:17:11Z</time>
      </trkpt>
      <trkpt lat="46.3195" lon="4.75764">
        <ele>200</ele>
        <time>2010-04-24T14:17:20Z</time>
      </trkpt>
      <trkpt lat="46.31911" lon="4.75812">
        <ele>200</ele>
        <time>2010-04-24T14:17:29Z</time>
      </trkpt>
      <trkpt lat="46.31864" lon="4.75859">
        <ele>199</ele>
        <time>2010-04-24T14:17:38Z</time>
      </trkpt>
      <trkpt lat="46.31818" lon="4.75902">
        <ele>199</ele>
        <time>2010-04-24T14:17:46Z</time>
      </trkpt>
      <trkpt lat="46.3177" lon="4.75943">
        <ele>199</ele>
        <time>2010-04-24T14:17:55Z</time>
      </trkpt>
      <trkpt lat="46.31724" lon="4.75981">
        <ele>199</ele>
        <time>2010-04-24T14:18:03Z</time>
      </trkpt>
      <trkpt lat="46.31676" lon="4.76013">
        <ele>199</ele>
        <time>2010-04-24T14:18:11Z</time>
      </trkpt>
      <trkpt lat="46.31627" lon="4.76037">
        <ele>199</ele>
        <time>2010-04-24T14:18:19Z</time>
      </trkpt>
      <trkpt lat="46.31571" lon="4.76056">
        <ele>200</ele>
        <time>2010-04-24T14:18:28Z</time>
      </trkpt>
      <trkpt lat="46.31516" lon="4.76066">
        <ele>200</ele>
        <time>2010-04-24T14:18:37Z</time>
      </trkpt>
      <trkpt lat="46.31464" lon="4.76073">
        <ele>201</ele>
        <time>2010-04-24T14:18:47Z</time>
      </trkpt>
      <trkpt lat="46.31414" lon="4.7608">
        <ele>201</ele>
        <time>2010-04-24T14:18:57Z</time>
      </trkpt>
      <trkpt lat="46.31359" lon="4.76087">
        <ele>201</ele>
        <time>2010-04-24T14:19:09Z</time>
      </trkpt>
      <trkpt lat="46.31305" lon="4.76102">
        <ele>201</ele>
        <time>2010-04-24T14:19:18Z</time>
      </trkpt>
      <trkpt lat="46.31254" lon="4.76127">
        <ele>201</ele>
        <time>2010-04-24T14:19:27Z</time>
      </trkpt>
      <trkpt lat="46.31207" lon="4.76157">
        <ele>200</ele>
        <time>2010-04-24T14:19:39Z</time>
      </trkpt>
      <trkpt lat="46.31161" lon="4.76198">
        <ele>199</ele>
        <time>2010-04-24T14:19:48Z</time>
      </trkpt>
      <trkpt lat="46.31118" lon="4.76247">
        <ele>198</ele>
        <time>2010-04-24T14:19:56Z</time>
      </trkpt>
      <trkpt lat="46.31077" lon="4.76297">
        <ele>197</ele>
        <time>2010-04-24T14:20:04Z</time>
      </trkpt>
      <trkpt lat="46.31038" lon="4.7635">
        <ele>195</ele>
        <time>2010-04-24T14:20:24Z</time>
      </trkpt>
      <trkpt lat="46.31002" lon="4.76409">
        <ele>194</ele>
        <time>2010-04-24T14:20:34Z</time>
      </trkpt>
      <trkpt lat="46.30973" lon="4.76473">
        <ele>193</ele>
        <time>2010-04-24T14:20:43Z</time>
      </trkpt>
      <trkpt lat="46.30946" lon="4.7654">
        <ele>196</ele>
        <time>2010-04-24T14:20:54Z</time>
      </trkpt>
      <trkpt lat="46.30914" lon="4.76607">
        <ele>197</ele>
        <time>2010-04-24T14:21:03Z</time>
      </trkpt>
      <trkpt lat="46.30876" lon="4.76663">
        <ele>196</ele>
        <time>2010-04-24T14:21:12Z</time>
      </trkpt>
      <trkpt lat="46.30833" lon="4.76714">
        <ele>196</ele>
        <time>2010-04-24T14:21:21Z</time>
      </trkpt>
      <trkpt lat="46.30784" lon="4.76754">
        <ele>197</ele>
        <time>2010-04-24T14:21:30Z</time>
      </trkpt>
      <trkpt lat="46.30733" lon="4.76779">
        <ele>197</ele>
        <time>2010-04-24T14:21:39Z</time>
      </trkpt>
      <trkpt lat="46.30685" lon="4.76803">
        <ele>198</ele>
        <time>2010-04-24T14:21:51Z</time>
      </trkpt>
      <trkpt lat="46.30639" lon="4.7683">
        <ele>198</ele>
        <time>2010-04-24T14:22:04Z</time>
      </trkpt>
      <trkpt lat="46.30591" lon="4.76867">
        <ele>198</ele>
        <time>2010-04-24T14:22:15Z</time>
      </trkpt>
      <trkpt lat="46.30542" lon="4.76904">
        <ele>198</ele>
        <time>2010-04-24T14:22:25Z</time>
      </trkpt>
      <trkpt lat="46.3049" lon="4.7693">
        <ele>197</ele>
        <time>2010-04-24T14:22:34Z</time>
      </trkpt>
      <trkpt lat="46.30436" lon="4.76946">
        <ele>198</ele>
        <time>2010-04-24T14:22:43Z</time>
      </trkpt>
      <trkpt lat="46.30381" lon="4.76963">
        <ele>198</ele>
        <time>2010-04-24T14:22:52Z</time>
      </trkpt>
      <trkpt lat="46.30326" lon="4.76987">
        <ele>198</ele>
        <time>2010-04-24T14:23:01Z</time>
      </trkpt>
      <trkpt lat="46.30279" lon="4.77022">
        <ele>197</ele>
        <time>2010-04-24T14:23:12Z</time>
      </trkpt>
      <trkpt lat="46.30238" lon="4.77067">
        <ele>197</ele>
        <time>2010-04-24T14:23:26Z</time>
      </trkpt>
      <trkpt lat="46.30203" lon="4.77119">
        <ele>196</ele>
        <time>2010-04-24T14:23:37Z</time>
      </trkpt>
      <trkpt lat="46.30173" lon="4.7718">
        <ele>196</ele>
        <time>2010-04-24T14:23:46Z</time>
      </trkpt>
      <trkpt lat="46.30145" lon="4.7725">
        <ele>195</ele>
        <time>2010-04-24T14:23:55Z</time>
      </trkpt>
      <trkpt lat="46.30116" lon="4.7732">
        <ele>196</ele>
        <time>2010-04-24T14:24:04Z</time>
      </trkpt>
      <trkpt lat="46.30079" lon="4.7738">
        <ele>196</ele>
        <time>2010-04-24T14:24:13Z</time>
      </trkpt>
      <trkpt lat="46.3004" lon="4.77428">
        <ele>195</ele>
        <time>2010-04-24T14:24:21Z</time>
      </trkpt>
      <trkpt lat="46.3" lon="4.77476">
        <ele>195</ele>
        <time>2010-04-24T14:24:29Z</time>
      </trkpt>
      <trkpt lat="46.29959" lon="4.7753">
        <ele>195</ele>
        <time>2010-04-24T14:24:39Z</time>
      </trkpt>
      <trkpt lat="46.29914" lon="4.77562">
        <ele>195</ele>
        <time>2010-04-24T14:24:55Z</time>
      </trkpt>
      <trkpt lat="46.29887" lon="4.77621">
        <ele>192</ele>
        <time>2010-04-24T14:25:42Z</time>
      </trkpt>
    </trkseg>
  </trk>
</gpx>